<?xml version="1.0" encoding="UTF-8"?>
<gpx xmlns="http://www.topografix.com/GPX/1/1" xmlns:xsi="http://www.w3.org/2001/XMLSchema-instance" version="1.1" xsi:schemaLocation="http://www.topografix.com/GPX/1/1 http://www.topografix.com/GPX/1/1/gpx.xsd">
  <metadata>
    <name>Triathlon de la Côte de Granit Rose 2024</name>
  </metadata>
  <trk>
    <name>Triathlon de la Côte de Granit Rose 2024</name>
    <trkseg>
      <trkpt lat="48.828662" lon="-3.521564">
        <ele>7.386524</ele>
        <time>2024-06-02T14:40:00.000Z</time>
      </trkpt>
      <trkpt lat="48.828656" lon="-3.521551">
        <ele>7.386532</ele>
        <time>2024-06-02T14:40:00.000Z</time>
      </trkpt>
      <trkpt lat="48.828163" lon="-3.521452">
        <ele>7.38653</ele>
        <time>2024-06-02T14:40:06.000Z</time>
      </trkpt>
      <trkpt lat="48.828159" lon="-3.521461">
        <ele>7.386532</ele>
        <time>2024-06-02T14:40:06.000Z</time>
      </trkpt>
      <trkpt lat="48.828228" lon="-3.522475">
        <ele>7.656662</ele>
        <time>2024-06-02T14:40:13.000Z</time>
      </trkpt>
      <trkpt lat="48.828076" lon="-3.522462">
        <ele>7.795444</ele>
        <time>2024-06-02T14:40:15.000Z</time>
      </trkpt>
      <trkpt lat="48.827243" lon="-3.522181">
        <ele>8.584296</ele>
        <time>2024-06-02T14:40:24.000Z</time>
      </trkpt>
      <trkpt lat="48.827211" lon="-3.522165">
        <ele>8.608917</ele>
        <time>2024-06-02T14:40:24.000Z</time>
      </trkpt>
      <trkpt lat="48.827324" lon="-3.521313">
        <ele>9.227596</ele>
        <time>2024-06-02T14:40:30.000Z</time>
      </trkpt>
      <trkpt lat="48.827321" lon="-3.521277">
        <ele>9.275209</ele>
        <time>2024-06-02T14:40:30.000Z</time>
      </trkpt>
      <trkpt lat="48.827366" lon="-3.521043">
        <ele>9.574557</ele>
        <time>2024-06-02T14:40:32.000Z</time>
      </trkpt>
      <trkpt lat="48.827418" lon="-3.520883">
        <ele>9.798593</ele>
        <time>2024-06-02T14:40:33.000Z</time>
      </trkpt>
      <trkpt lat="48.827487" lon="-3.520818">
        <ele>9.939991</ele>
        <time>2024-06-02T14:40:34.000Z</time>
      </trkpt>
      <trkpt lat="48.828089" lon="-3.520674">
        <ele>11.077775</ele>
        <time>2024-06-02T14:40:41.000Z</time>
      </trkpt>
      <trkpt lat="48.82806" lon="-3.520391">
        <ele>11.425935</ele>
        <time>2024-06-02T14:40:43.000Z</time>
      </trkpt>
      <trkpt lat="48.827992" lon="-3.519657">
        <ele>12.324595</ele>
        <time>2024-06-02T14:40:48.000Z</time>
      </trkpt>
      <trkpt lat="48.827887" lon="-3.518348">
        <ele>13.752185</ele>
        <time>2024-06-02T14:40:58.000Z</time>
      </trkpt>
      <trkpt lat="48.827859" lon="-3.518103">
        <ele>14.015951</ele>
        <time>2024-06-02T14:41:00.000Z</time>
      </trkpt>
      <trkpt lat="48.827715" lon="-3.516331">
        <ele>14.893034</ele>
        <time>2024-06-02T14:41:13.000Z</time>
      </trkpt>
      <trkpt lat="48.827646" lon="-3.516349">
        <ele>14.8297</ele>
        <time>2024-06-02T14:41:14.000Z</time>
      </trkpt>
      <trkpt lat="48.827615" lon="-3.516302">
        <ele>14.781249</ele>
        <time>2024-06-02T14:41:14.000Z</time>
      </trkpt>
      <trkpt lat="48.827453" lon="-3.516721">
        <ele>14.413749</ele>
        <time>2024-06-02T14:41:18.000Z</time>
      </trkpt>
      <trkpt lat="48.827299" lon="-3.516964">
        <ele>14.161889</ele>
        <time>2024-06-02T14:41:20.000Z</time>
      </trkpt>
      <trkpt lat="48.827147" lon="-3.517099">
        <ele>13.965755</ele>
        <time>2024-06-02T14:41:22.000Z</time>
      </trkpt>
      <trkpt lat="48.826902" lon="-3.517227">
        <ele>13.670178</ele>
        <time>2024-06-02T14:41:25.000Z</time>
      </trkpt>
      <trkpt lat="48.826086" lon="-3.517543">
        <ele>12.161023</ele>
        <time>2024-06-02T14:41:34.000Z</time>
      </trkpt>
      <trkpt lat="48.825283" lon="-3.517851">
        <ele>10.267053</ele>
        <time>2024-06-02T14:41:43.000Z</time>
      </trkpt>
      <trkpt lat="48.824153" lon="-3.518254">
        <ele>8.66334</ele>
        <time>2024-06-02T14:41:56.000Z</time>
      </trkpt>
      <trkpt lat="48.823925" lon="-3.518277">
        <ele>8.501033</ele>
        <time>2024-06-02T14:41:59.000Z</time>
      </trkpt>
      <trkpt lat="48.823211" lon="-3.518253">
        <ele>7.989201</ele>
        <time>2024-06-02T14:42:07.000Z</time>
      </trkpt>
      <trkpt lat="48.822391" lon="-3.518182">
        <ele>7.731866</ele>
        <time>2024-06-02T14:42:16.000Z</time>
      </trkpt>
      <trkpt lat="48.821943" lon="-3.518087">
        <ele>7.635201</ele>
        <time>2024-06-02T14:42:21.000Z</time>
      </trkpt>
      <trkpt lat="48.821724" lon="-3.517995">
        <ele>7.589212</ele>
        <time>2024-06-02T14:42:24.000Z</time>
      </trkpt>
      <trkpt lat="48.821553" lon="-3.517918">
        <ele>7.550742</ele>
        <time>2024-06-02T14:42:26.000Z</time>
      </trkpt>
      <trkpt lat="48.820953" lon="-3.517653">
        <ele>7.406011</ele>
        <time>2024-06-02T14:42:33.000Z</time>
      </trkpt>
      <trkpt lat="48.820146" lon="-3.517296">
        <ele>7.205103</ele>
        <time>2024-06-02T14:42:42.000Z</time>
      </trkpt>
      <trkpt lat="48.819729" lon="-3.517212">
        <ele>7.103414</ele>
        <time>2024-06-02T14:42:47.000Z</time>
      </trkpt>
      <trkpt lat="48.819422" lon="-3.51725">
        <ele>7.072683</ele>
        <time>2024-06-02T14:42:50.000Z</time>
      </trkpt>
      <trkpt lat="48.819134" lon="-3.517403">
        <ele>7.142375</ele>
        <time>2024-06-02T14:42:53.000Z</time>
      </trkpt>
      <trkpt lat="48.818831" lon="-3.517695">
        <ele>7.222869</ele>
        <time>2024-06-02T14:42:57.000Z</time>
      </trkpt>
      <trkpt lat="48.818534" lon="-3.51814">
        <ele>7.316738</ele>
        <time>2024-06-02T14:43:02.000Z</time>
      </trkpt>
      <trkpt lat="48.817834" lon="-3.519188">
        <ele>7.759645</ele>
        <time>2024-06-02T14:43:13.000Z</time>
      </trkpt>
      <trkpt lat="48.817599" lon="-3.519544">
        <ele>8.038515</ele>
        <time>2024-06-02T14:43:17.000Z</time>
      </trkpt>
      <trkpt lat="48.817414" lon="-3.519967">
        <ele>8.314068</ele>
        <time>2024-06-02T14:43:21.000Z</time>
      </trkpt>
      <trkpt lat="48.816945" lon="-3.521347">
        <ele>9.495159</ele>
        <time>2024-06-02T14:43:32.000Z</time>
      </trkpt>
      <trkpt lat="48.816822" lon="-3.521675">
        <ele>10.038801</ele>
        <time>2024-06-02T14:43:35.000Z</time>
      </trkpt>
      <trkpt lat="48.816184" lon="-3.523081">
        <ele>12.441059</ele>
        <time>2024-06-02T14:43:48.000Z</time>
      </trkpt>
      <trkpt lat="48.815998" lon="-3.523648">
        <ele>13.063877</ele>
        <time>2024-06-02T14:43:53.000Z</time>
      </trkpt>
      <trkpt lat="48.815726" lon="-3.524626">
        <ele>13.796173</ele>
        <time>2024-06-02T14:44:01.000Z</time>
      </trkpt>
      <trkpt lat="48.815641" lon="-3.524868">
        <ele>13.985439</ele>
        <time>2024-06-02T14:44:03.000Z</time>
      </trkpt>
      <trkpt lat="48.815461" lon="-3.525263">
        <ele>14.32867</ele>
        <time>2024-06-02T14:44:07.000Z</time>
      </trkpt>
      <trkpt lat="48.815103" lon="-3.525836">
        <ele>14.488356</ele>
        <time>2024-06-02T14:44:13.000Z</time>
      </trkpt>
      <trkpt lat="48.8143" lon="-3.52683">
        <ele>13.003957</ele>
        <time>2024-06-02T14:44:25.000Z</time>
      </trkpt>
      <trkpt lat="48.813493" lon="-3.527799">
        <ele>11.726462</ele>
        <time>2024-06-02T14:44:36.000Z</time>
      </trkpt>
      <trkpt lat="48.812327" lon="-3.529218">
        <ele>10.382233</ele>
        <time>2024-06-02T14:44:53.000Z</time>
      </trkpt>
      <trkpt lat="48.811816" lon="-3.529835">
        <ele>10.505668</ele>
        <time>2024-06-02T14:45:00.000Z</time>
      </trkpt>
      <trkpt lat="48.811492" lon="-3.530236">
        <ele>10.586344</ele>
        <time>2024-06-02T14:45:05.000Z</time>
      </trkpt>
      <trkpt lat="48.811406" lon="-3.530319">
        <ele>10.60354</ele>
        <time>2024-06-02T14:45:06.000Z</time>
      </trkpt>
      <trkpt lat="48.81138" lon="-3.530362">
        <ele>10.61109</ele>
        <time>2024-06-02T14:45:06.000Z</time>
      </trkpt>
      <trkpt lat="48.8112" lon="-3.53058">
        <ele>10.65467</ele>
        <time>2024-06-02T14:45:09.000Z</time>
      </trkpt>
      <trkpt lat="48.810816" lon="-3.531042">
        <ele>10.689588</ele>
        <time>2024-06-02T14:45:14.000Z</time>
      </trkpt>
      <trkpt lat="48.810197" lon="-3.531788">
        <ele>10.660396</ele>
        <time>2024-06-02T14:45:23.000Z</time>
      </trkpt>
      <trkpt lat="48.810119" lon="-3.531905">
        <ele>10.655814</ele>
        <time>2024-06-02T14:45:24.000Z</time>
      </trkpt>
      <trkpt lat="48.809161" lon="-3.533072">
        <ele>9.782677</ele>
        <time>2024-06-02T14:45:38.000Z</time>
      </trkpt>
      <trkpt lat="48.808679" lon="-3.533639">
        <ele>8.877093</ele>
        <time>2024-06-02T14:45:45.000Z</time>
      </trkpt>
      <trkpt lat="48.808426" lon="-3.533836">
        <ele>8.466358</ele>
        <time>2024-06-02T14:45:48.000Z</time>
      </trkpt>
      <trkpt lat="48.80824" lon="-3.533933">
        <ele>8.16869</ele>
        <time>2024-06-02T14:45:50.000Z</time>
      </trkpt>
      <trkpt lat="48.807898" lon="-3.533973">
        <ele>7.768937</ele>
        <time>2024-06-02T14:45:54.000Z</time>
      </trkpt>
      <trkpt lat="48.807386" lon="-3.533848">
        <ele>7.26549</ele>
        <time>2024-06-02T14:46:00.000Z</time>
      </trkpt>
      <trkpt lat="48.806592" lon="-3.533593">
        <ele>6.468693</ele>
        <time>2024-06-02T14:46:09.000Z</time>
      </trkpt>
      <trkpt lat="48.806213" lon="-3.533546">
        <ele>6.298057</ele>
        <time>2024-06-02T14:46:13.000Z</time>
      </trkpt>
      <trkpt lat="48.804488" lon="-3.533825">
        <ele>7.392477</ele>
        <time>2024-06-02T14:46:32.000Z</time>
      </trkpt>
      <trkpt lat="48.802963" lon="-3.534071">
        <ele>8.544638</ele>
        <time>2024-06-02T14:46:49.000Z</time>
      </trkpt>
      <trkpt lat="48.802535" lon="-3.5342">
        <ele>9.018016</ele>
        <time>2024-06-02T14:46:54.000Z</time>
      </trkpt>
      <trkpt lat="48.802178" lon="-3.534476">
        <ele>9.582981</ele>
        <time>2024-06-02T14:46:58.000Z</time>
      </trkpt>
      <trkpt lat="48.801973" lon="-3.534737">
        <ele>9.974517</ele>
        <time>2024-06-02T14:47:01.000Z</time>
      </trkpt>
      <trkpt lat="48.801809" lon="-3.534968">
        <ele>10.287877</ele>
        <time>2024-06-02T14:47:03.000Z</time>
      </trkpt>
      <trkpt lat="48.801646" lon="-3.535305">
        <ele>10.685948</ele>
        <time>2024-06-02T14:47:06.000Z</time>
      </trkpt>
      <trkpt lat="48.800199" lon="-3.538461">
        <ele>15.586685</ele>
        <time>2024-06-02T14:47:34.000Z</time>
      </trkpt>
      <trkpt lat="48.799869" lon="-3.53901">
        <ele>15.294699</ele>
        <time>2024-06-02T14:47:39.000Z</time>
      </trkpt>
      <trkpt lat="48.79859" lon="-3.540753">
        <ele>13.211396</ele>
        <time>2024-06-02T14:47:58.000Z</time>
      </trkpt>
      <trkpt lat="48.798354" lon="-3.541043">
        <ele>12.592923</ele>
        <time>2024-06-02T14:48:01.000Z</time>
      </trkpt>
      <trkpt lat="48.797703" lon="-3.541929">
        <ele>11.124975</ele>
        <time>2024-06-02T14:48:11.000Z</time>
      </trkpt>
      <trkpt lat="48.797306" lon="-3.542456">
        <ele>11.240788</ele>
        <time>2024-06-02T14:48:17.000Z</time>
      </trkpt>
      <trkpt lat="48.797042" lon="-3.542891">
        <ele>11.326586</ele>
        <time>2024-06-02T14:48:21.000Z</time>
      </trkpt>
      <trkpt lat="48.796992" lon="-3.542945">
        <ele>11.339024</ele>
        <time>2024-06-02T14:48:22.000Z</time>
      </trkpt>
      <trkpt lat="48.796458" lon="-3.54408">
        <ele>11.757205</ele>
        <time>2024-06-02T14:48:32.000Z</time>
      </trkpt>
      <trkpt lat="48.795774" lon="-3.545653">
        <ele>13.167048</ele>
        <time>2024-06-02T14:48:46.000Z</time>
      </trkpt>
      <trkpt lat="48.795648" lon="-3.54602">
        <ele>13.474805</ele>
        <time>2024-06-02T14:48:49.000Z</time>
      </trkpt>
      <trkpt lat="48.79542" lon="-3.546689">
        <ele>14.279476</ele>
        <time>2024-06-02T14:48:55.000Z</time>
      </trkpt>
      <trkpt lat="48.794471" lon="-3.549985">
        <ele>16.534983</ele>
        <time>2024-06-02T14:49:21.000Z</time>
      </trkpt>
      <trkpt lat="48.794348" lon="-3.550315">
        <ele>16.532519</ele>
        <time>2024-06-02T14:49:24.000Z</time>
      </trkpt>
      <trkpt lat="48.794206" lon="-3.550579">
        <ele>16.530164</ele>
        <time>2024-06-02T14:49:26.000Z</time>
      </trkpt>
      <trkpt lat="48.794037" lon="-3.550862">
        <ele>16.527452</ele>
        <time>2024-06-02T14:49:29.000Z</time>
      </trkpt>
      <trkpt lat="48.793792" lon="-3.551149">
        <ele>15.509864</ele>
        <time>2024-06-02T14:49:32.000Z</time>
      </trkpt>
      <trkpt lat="48.79342" lon="-3.55146">
        <ele>13.836807</ele>
        <time>2024-06-02T14:49:37.000Z</time>
      </trkpt>
      <trkpt lat="48.792223" lon="-3.552361">
        <ele>8.816914</ele>
        <time>2024-06-02T14:49:52.000Z</time>
      </trkpt>
      <trkpt lat="48.791965" lon="-3.552655">
        <ele>7.956588</ele>
        <time>2024-06-02T14:49:56.000Z</time>
      </trkpt>
      <trkpt lat="48.791794" lon="-3.552962">
        <ele>7.238184</ele>
        <time>2024-06-02T14:49:59.000Z</time>
      </trkpt>
      <trkpt lat="48.79168" lon="-3.553275">
        <ele>6.602232</ele>
        <time>2024-06-02T14:50:02.000Z</time>
      </trkpt>
      <trkpt lat="48.791476" lon="-3.554005">
        <ele>5.18113</ele>
        <time>2024-06-02T14:50:08.000Z</time>
      </trkpt>
      <trkpt lat="48.791376" lon="-3.554383">
        <ele>4.547204</ele>
        <time>2024-06-02T14:50:11.000Z</time>
      </trkpt>
      <trkpt lat="48.791231" lon="-3.554948">
        <ele>4.843247</ele>
        <time>2024-06-02T14:50:15.000Z</time>
      </trkpt>
      <trkpt lat="48.79122" lon="-3.555148">
        <ele>4.939784</ele>
        <time>2024-06-02T14:50:16.000Z</time>
      </trkpt>
      <trkpt lat="48.791067" lon="-3.554913">
        <ele>5.099303</ele>
        <time>2024-06-02T14:50:18.000Z</time>
      </trkpt>
      <trkpt lat="48.79082" lon="-3.554514">
        <ele>5.377763</ele>
        <time>2024-06-02T14:50:22.000Z</time>
      </trkpt>
      <trkpt lat="48.790713" lon="-3.554339">
        <ele>5.488999</ele>
        <time>2024-06-02T14:50:24.000Z</time>
      </trkpt>
      <trkpt lat="48.790644" lon="-3.554205">
        <ele>5.575415</ele>
        <time>2024-06-02T14:50:25.000Z</time>
      </trkpt>
      <trkpt lat="48.790599" lon="-3.554088">
        <ele>5.644212</ele>
        <time>2024-06-02T14:50:26.000Z</time>
      </trkpt>
      <trkpt lat="48.7905" lon="-3.553758">
        <ele>5.813074</ele>
        <time>2024-06-02T14:50:29.000Z</time>
      </trkpt>
      <trkpt lat="48.790492" lon="-3.553664">
        <ele>5.861126</ele>
        <time>2024-06-02T14:50:30.000Z</time>
      </trkpt>
      <trkpt lat="48.790478" lon="-3.5535">
        <ele>6.277396</ele>
        <time>2024-06-02T14:50:31.000Z</time>
      </trkpt>
      <trkpt lat="48.790454" lon="-3.553301">
        <ele>6.748501</ele>
        <time>2024-06-02T14:50:32.000Z</time>
      </trkpt>
      <trkpt lat="48.790447" lon="-3.553259">
        <ele>6.846827</ele>
        <time>2024-06-02T14:50:32.000Z</time>
      </trkpt>
      <trkpt lat="48.790391" lon="-3.552685">
        <ele>8.302774</ele>
        <time>2024-06-02T14:50:36.000Z</time>
      </trkpt>
      <trkpt lat="48.790246" lon="-3.552365">
        <ele>9.257874</ele>
        <time>2024-06-02T14:50:39.000Z</time>
      </trkpt>
      <trkpt lat="48.790049" lon="-3.552115">
        <ele>10.219268</ele>
        <time>2024-06-02T14:50:42.000Z</time>
      </trkpt>
      <trkpt lat="48.789858" lon="-3.55189">
        <ele>11.163758</ele>
        <time>2024-06-02T14:50:45.000Z</time>
      </trkpt>
      <trkpt lat="48.789709" lon="-3.551727">
        <ele>11.822392</ele>
        <time>2024-06-02T14:50:47.000Z</time>
      </trkpt>
      <trkpt lat="48.789579" lon="-3.55159">
        <ele>12.415449</ele>
        <time>2024-06-02T14:50:49.000Z</time>
      </trkpt>
      <trkpt lat="48.789339" lon="-3.551426">
        <ele>13.562261</ele>
        <time>2024-06-02T14:50:52.000Z</time>
      </trkpt>
      <trkpt lat="48.788965" lon="-3.551271">
        <ele>15.36637</ele>
        <time>2024-06-02T14:50:56.000Z</time>
      </trkpt>
      <trkpt lat="48.788724" lon="-3.551229">
        <ele>16.54307</ele>
        <time>2024-06-02T14:50:59.000Z</time>
      </trkpt>
      <trkpt lat="48.788179" lon="-3.551289">
        <ele>19.052193</ele>
        <time>2024-06-02T14:51:05.000Z</time>
      </trkpt>
      <trkpt lat="48.787871" lon="-3.551114">
        <ele>20.576757</ele>
        <time>2024-06-02T14:51:09.000Z</time>
      </trkpt>
      <trkpt lat="48.787708" lon="-3.550929">
        <ele>20.913004</ele>
        <time>2024-06-02T14:51:11.000Z</time>
      </trkpt>
      <trkpt lat="48.787589" lon="-3.550685">
        <ele>20.869514</ele>
        <time>2024-06-02T14:51:13.000Z</time>
      </trkpt>
      <trkpt lat="48.787576" lon="-3.550666">
        <ele>20.865894</ele>
        <time>2024-06-02T14:51:13.000Z</time>
      </trkpt>
      <trkpt lat="48.787568" lon="-3.550668">
        <ele>20.864853</ele>
        <time>2024-06-02T14:51:13.000Z</time>
      </trkpt>
      <trkpt lat="48.787575" lon="-3.55066">
        <ele>20.863802</ele>
        <time>2024-06-02T14:51:13.000Z</time>
      </trkpt>
      <trkpt lat="48.787497" lon="-3.550416">
        <ele>20.826243</ele>
        <time>2024-06-02T14:51:15.000Z</time>
      </trkpt>
      <trkpt lat="48.787469" lon="-3.550101">
        <ele>20.782379</ele>
        <time>2024-06-02T14:51:17.000Z</time>
      </trkpt>
      <trkpt lat="48.78747" lon="-3.549742">
        <ele>20.732219</ele>
        <time>2024-06-02T14:51:20.000Z</time>
      </trkpt>
      <trkpt lat="48.787517" lon="-3.549276">
        <ele>20.666472</ele>
        <time>2024-06-02T14:51:23.000Z</time>
      </trkpt>
      <trkpt lat="48.787747" lon="-3.547323">
        <ele>18.809369</ele>
        <time>2024-06-02T14:51:38.000Z</time>
      </trkpt>
      <trkpt lat="48.787854" lon="-3.546404">
        <ele>17.440975</ele>
        <time>2024-06-02T14:51:45.000Z</time>
      </trkpt>
      <trkpt lat="48.78788" lon="-3.545844">
        <ele>16.627574</ele>
        <time>2024-06-02T14:51:49.000Z</time>
      </trkpt>
      <trkpt lat="48.787877" lon="-3.545405">
        <ele>16.803309</ele>
        <time>2024-06-02T14:51:52.000Z</time>
      </trkpt>
      <trkpt lat="48.787829" lon="-3.54476">
        <ele>17.212682</ele>
        <time>2024-06-02T14:51:57.000Z</time>
      </trkpt>
      <trkpt lat="48.787786" lon="-3.544454">
        <ele>17.406322</ele>
        <time>2024-06-02T14:51:59.000Z</time>
      </trkpt>
      <trkpt lat="48.787577" lon="-3.543551">
        <ele>18.018971</ele>
        <time>2024-06-02T14:52:06.000Z</time>
      </trkpt>
      <trkpt lat="48.786783" lon="-3.541704">
        <ele>19.892271</ele>
        <time>2024-06-02T14:52:22.000Z</time>
      </trkpt>
      <trkpt lat="48.78636" lon="-3.540713">
        <ele>20.779952</ele>
        <time>2024-06-02T14:52:31.000Z</time>
      </trkpt>
      <trkpt lat="48.786333" lon="-3.540638">
        <ele>20.789142</ele>
        <time>2024-06-02T14:52:32.000Z</time>
      </trkpt>
      <trkpt lat="48.786311" lon="-3.540596">
        <ele>20.79555</ele>
        <time>2024-06-02T14:52:32.000Z</time>
      </trkpt>
      <trkpt lat="48.786288" lon="-3.540522">
        <ele>20.803219</ele>
        <time>2024-06-02T14:52:33.000Z</time>
      </trkpt>
      <trkpt lat="48.785902" lon="-3.539616">
        <ele>20.920112</ele>
        <time>2024-06-02T14:52:41.000Z</time>
      </trkpt>
      <trkpt lat="48.785269" lon="-3.537926">
        <ele>21.098924</ele>
        <time>2024-06-02T14:52:55.000Z</time>
      </trkpt>
      <trkpt lat="48.7843" lon="-3.53479">
        <ele>21.74007</ele>
        <time>2024-06-02T14:53:20.000Z</time>
      </trkpt>
      <trkpt lat="48.783667" lon="-3.532979">
        <ele>23.29181</ele>
        <time>2024-06-02T14:53:35.000Z</time>
      </trkpt>
      <trkpt lat="48.783254" lon="-3.531976">
        <ele>24.953195</ele>
        <time>2024-06-02T14:53:44.000Z</time>
      </trkpt>
      <trkpt lat="48.782682" lon="-3.530755">
        <ele>27.910547</ele>
        <time>2024-06-02T14:53:55.000Z</time>
      </trkpt>
      <trkpt lat="48.782396" lon="-3.530218">
        <ele>29.607276</ele>
        <time>2024-06-02T14:54:00.000Z</time>
      </trkpt>
      <trkpt lat="48.78203" lon="-3.529677">
        <ele>31.602287</ele>
        <time>2024-06-02T14:54:06.000Z</time>
      </trkpt>
      <trkpt lat="48.781657" lon="-3.529231">
        <ele>33.34535</ele>
        <time>2024-06-02T14:54:11.000Z</time>
      </trkpt>
      <trkpt lat="48.781129" lon="-3.528765">
        <ele>35.402528</ele>
        <time>2024-06-02T14:54:18.000Z</time>
      </trkpt>
      <trkpt lat="48.780886" lon="-3.528571">
        <ele>36.281953</ele>
        <time>2024-06-02T14:54:21.000Z</time>
      </trkpt>
      <trkpt lat="48.780621" lon="-3.528411">
        <ele>37.216059</ele>
        <time>2024-06-02T14:54:24.000Z</time>
      </trkpt>
      <trkpt lat="48.780466" lon="-3.528349">
        <ele>37.777347</ele>
        <time>2024-06-02T14:54:26.000Z</time>
      </trkpt>
      <trkpt lat="48.778968" lon="-3.527589">
        <ele>44.198487</ele>
        <time>2024-06-02T14:54:44.000Z</time>
      </trkpt>
      <trkpt lat="48.778782" lon="-3.52752">
        <ele>45.038345</ele>
        <time>2024-06-02T14:54:46.000Z</time>
      </trkpt>
      <trkpt lat="48.777712" lon="-3.526962">
        <ele>53.004829</ele>
        <time>2024-06-02T14:54:59.000Z</time>
      </trkpt>
      <trkpt lat="48.777388" lon="-3.526703">
        <ele>56.01077</ele>
        <time>2024-06-02T14:55:03.000Z</time>
      </trkpt>
      <trkpt lat="48.776812" lon="-3.526134">
        <ele>61.853803</ele>
        <time>2024-06-02T14:55:11.000Z</time>
      </trkpt>
      <trkpt lat="48.776673" lon="-3.525987">
        <ele>63.139858</ele>
        <time>2024-06-02T14:55:13.000Z</time>
      </trkpt>
      <trkpt lat="48.775872" lon="-3.524779">
        <ele>72.354361</ele>
        <time>2024-06-02T14:55:26.000Z</time>
      </trkpt>
      <trkpt lat="48.774982" lon="-3.52324">
        <ele>80.647079</ele>
        <time>2024-06-02T14:55:41.000Z</time>
      </trkpt>
      <trkpt lat="48.774024" lon="-3.521669">
        <ele>85.874336</ele>
        <time>2024-06-02T14:55:57.000Z</time>
      </trkpt>
      <trkpt lat="48.773529" lon="-3.520822">
        <ele>86.679491</ele>
        <time>2024-06-02T14:56:05.000Z</time>
      </trkpt>
      <trkpt lat="48.774012" lon="-3.521668">
        <ele>86.541364</ele>
        <time>2024-06-02T14:56:13.000Z</time>
      </trkpt>
      <trkpt lat="48.774983" lon="-3.523245">
        <ele>80.983933</ele>
        <time>2024-06-02T14:56:29.000Z</time>
      </trkpt>
      <trkpt lat="48.775869" lon="-3.52478">
        <ele>72.234671</ele>
        <time>2024-06-02T14:56:44.000Z</time>
      </trkpt>
      <trkpt lat="48.776685" lon="-3.525983">
        <ele>63.365751</ele>
        <time>2024-06-02T14:56:57.000Z</time>
      </trkpt>
      <trkpt lat="48.776803" lon="-3.526132">
        <ele>61.941139</ele>
        <time>2024-06-02T14:56:59.000Z</time>
      </trkpt>
      <trkpt lat="48.777386" lon="-3.526703">
        <ele>55.629578</ele>
        <time>2024-06-02T14:57:07.000Z</time>
      </trkpt>
      <trkpt lat="48.777711" lon="-3.526959">
        <ele>52.387313</ele>
        <time>2024-06-02T14:57:11.000Z</time>
      </trkpt>
      <trkpt lat="48.778787" lon="-3.527522">
        <ele>45.530656</ele>
        <time>2024-06-02T14:57:24.000Z</time>
      </trkpt>
      <trkpt lat="48.778972" lon="-3.52758">
        <ele>44.37907</ele>
        <time>2024-06-02T14:57:26.000Z</time>
      </trkpt>
      <trkpt lat="48.780466" lon="-3.528347">
        <ele>37.843887</ele>
        <time>2024-06-02T14:57:44.000Z</time>
      </trkpt>
      <trkpt lat="48.780631" lon="-3.528406">
        <ele>37.302481</ele>
        <time>2024-06-02T14:57:46.000Z</time>
      </trkpt>
      <trkpt lat="48.780892" lon="-3.528587">
        <ele>36.401464</ele>
        <time>2024-06-02T14:57:49.000Z</time>
      </trkpt>
      <trkpt lat="48.781123" lon="-3.528763">
        <ele>35.55321</ele>
        <time>2024-06-02T14:57:52.000Z</time>
      </trkpt>
      <trkpt lat="48.781669" lon="-3.529233">
        <ele>33.236037</ele>
        <time>2024-06-02T14:57:59.000Z</time>
      </trkpt>
      <trkpt lat="48.78203" lon="-3.529684">
        <ele>31.446002</ele>
        <time>2024-06-02T14:58:04.000Z</time>
      </trkpt>
      <trkpt lat="48.782403" lon="-3.530235">
        <ele>29.480396</ele>
        <time>2024-06-02T14:58:10.000Z</time>
      </trkpt>
      <trkpt lat="48.782682" lon="-3.530743">
        <ele>27.956806</ele>
        <time>2024-06-02T14:58:15.000Z</time>
      </trkpt>
      <trkpt lat="48.783242" lon="-3.531975">
        <ele>25.011957</ele>
        <time>2024-06-02T14:58:26.000Z</time>
      </trkpt>
      <trkpt lat="48.783668" lon="-3.532986">
        <ele>22.974589</ele>
        <time>2024-06-02T14:58:35.000Z</time>
      </trkpt>
      <trkpt lat="48.784306" lon="-3.534793">
        <ele>21.691671</ele>
        <time>2024-06-02T14:58:50.000Z</time>
      </trkpt>
      <trkpt lat="48.785274" lon="-3.537914">
        <ele>21.063497</ele>
        <time>2024-06-02T14:59:15.000Z</time>
      </trkpt>
      <trkpt lat="48.785905" lon="-3.539625">
        <ele>21.025736</ele>
        <time>2024-06-02T14:59:29.000Z</time>
      </trkpt>
      <trkpt lat="48.786294" lon="-3.540522">
        <ele>20.679825</ele>
        <time>2024-06-02T14:59:37.000Z</time>
      </trkpt>
      <trkpt lat="48.786316" lon="-3.540599">
        <ele>20.639754</ele>
        <time>2024-06-02T14:59:38.000Z</time>
      </trkpt>
      <trkpt lat="48.786345" lon="-3.540644">
        <ele>20.606272</ele>
        <time>2024-06-02T14:59:38.000Z</time>
      </trkpt>
      <trkpt lat="48.786372" lon="-3.54071">
        <ele>20.55818</ele>
        <time>2024-06-02T14:59:39.000Z</time>
      </trkpt>
      <trkpt lat="48.786789" lon="-3.541711">
        <ele>19.890146</ele>
        <time>2024-06-02T14:59:48.000Z</time>
      </trkpt>
      <trkpt lat="48.78757" lon="-3.543545">
        <ele>17.969185</ele>
        <time>2024-06-02T15:00:04.000Z</time>
      </trkpt>
      <trkpt lat="48.787799" lon="-3.544448">
        <ele>16.95586</ele>
        <time>2024-06-02T15:00:11.000Z</time>
      </trkpt>
      <trkpt lat="48.787818" lon="-3.544756">
        <ele>16.638608</ele>
        <time>2024-06-02T15:00:13.000Z</time>
      </trkpt>
      <trkpt lat="48.787877" lon="-3.545405">
        <ele>17.109851</ele>
        <time>2024-06-02T15:00:18.000Z</time>
      </trkpt>
      <trkpt lat="48.787876" lon="-3.545853">
        <ele>17.430361</ele>
        <time>2024-06-02T15:00:21.000Z</time>
      </trkpt>
      <trkpt lat="48.78785" lon="-3.546402">
        <ele>17.831887</ele>
        <time>2024-06-02T15:00:25.000Z</time>
      </trkpt>
      <trkpt lat="48.787734" lon="-3.547322">
        <ele>18.507377</ele>
        <time>2024-06-02T15:00:32.000Z</time>
      </trkpt>
      <trkpt lat="48.787523" lon="-3.549265">
        <ele>20.941558</ele>
        <time>2024-06-02T15:00:46.000Z</time>
      </trkpt>
      <trkpt lat="48.787474" lon="-3.549743">
        <ele>21.540676</ele>
        <time>2024-06-02T15:00:50.000Z</time>
      </trkpt>
      <trkpt lat="48.787462" lon="-3.550098">
        <ele>21.997749</ele>
        <time>2024-06-02T15:00:53.000Z</time>
      </trkpt>
      <trkpt lat="48.787494" lon="-3.550411">
        <ele>21.519648</ele>
        <time>2024-06-02T15:00:55.000Z</time>
      </trkpt>
      <trkpt lat="48.787575" lon="-3.550658">
        <ele>20.926568</ele>
        <time>2024-06-02T15:00:57.000Z</time>
      </trkpt>
      <trkpt lat="48.787568" lon="-3.550656">
        <ele>20.910017</ele>
        <time>2024-06-02T15:00:57.000Z</time>
      </trkpt>
      <trkpt lat="48.787573" lon="-3.550677">
        <ele>20.893456</ele>
        <time>2024-06-02T15:00:57.000Z</time>
      </trkpt>
      <trkpt lat="48.787584" lon="-3.550693">
        <ele>20.836505</ele>
        <time>2024-06-02T15:00:57.000Z</time>
      </trkpt>
      <trkpt lat="48.787711" lon="-3.550929">
        <ele>20.149823</ele>
        <time>2024-06-02T15:00:59.000Z</time>
      </trkpt>
      <trkpt lat="48.787858" lon="-3.551115">
        <ele>19.514608</ele>
        <time>2024-06-02T15:01:01.000Z</time>
      </trkpt>
      <trkpt lat="48.788173" lon="-3.551289">
        <ele>18.414151</ele>
        <time>2024-06-02T15:01:05.000Z</time>
      </trkpt>
      <trkpt lat="48.788709" lon="-3.551244">
        <ele>16.603004</ele>
        <time>2024-06-02T15:01:11.000Z</time>
      </trkpt>
      <trkpt lat="48.788961" lon="-3.551263">
        <ele>15.643641</ele>
        <time>2024-06-02T15:01:14.000Z</time>
      </trkpt>
      <trkpt lat="48.789344" lon="-3.551431">
        <ele>13.895862</ele>
        <time>2024-06-02T15:01:18.000Z</time>
      </trkpt>
      <trkpt lat="48.789584" lon="-3.55159">
        <ele>12.738498</ele>
        <time>2024-06-02T15:01:21.000Z</time>
      </trkpt>
      <trkpt lat="48.789707" lon="-3.551743">
        <ele>12.031508</ele>
        <time>2024-06-02T15:01:23.000Z</time>
      </trkpt>
      <trkpt lat="48.789857" lon="-3.551896">
        <ele>11.24639</ele>
        <time>2024-06-02T15:01:25.000Z</time>
      </trkpt>
      <trkpt lat="48.790051" lon="-3.552106">
        <ele>10.120478</ele>
        <time>2024-06-02T15:01:28.000Z</time>
      </trkpt>
      <trkpt lat="48.790252" lon="-3.552356">
        <ele>8.974438</ele>
        <time>2024-06-02T15:01:31.000Z</time>
      </trkpt>
      <trkpt lat="48.790392" lon="-3.552686">
        <ele>7.939246</ele>
        <time>2024-06-02T15:01:34.000Z</time>
      </trkpt>
      <trkpt lat="48.790443" lon="-3.553271">
        <ele>7.171937</ele>
        <time>2024-06-02T15:01:38.000Z</time>
      </trkpt>
      <trkpt lat="48.790461" lon="-3.553313">
        <ele>7.120109</ele>
        <time>2024-06-02T15:01:38.000Z</time>
      </trkpt>
      <trkpt lat="48.790473" lon="-3.553485">
        <ele>6.87183</ele>
        <time>2024-06-02T15:01:39.000Z</time>
      </trkpt>
      <trkpt lat="48.790477" lon="-3.553665">
        <ele>6.640113</ele>
        <time>2024-06-02T15:01:40.000Z</time>
      </trkpt>
      <trkpt lat="48.790499" lon="-3.553773">
        <ele>6.512229</ele>
        <time>2024-06-02T15:01:41.000Z</time>
      </trkpt>
      <trkpt lat="48.790592" lon="-3.554085">
        <ele>6.062814</ele>
        <time>2024-06-02T15:01:44.000Z</time>
      </trkpt>
      <trkpt lat="48.790645" lon="-3.554188">
        <ele>5.879674</ele>
        <time>2024-06-02T15:01:45.000Z</time>
      </trkpt>
      <trkpt lat="48.790704" lon="-3.554341">
        <ele>5.649671</ele>
        <time>2024-06-02T15:01:46.000Z</time>
      </trkpt>
      <trkpt lat="48.79082" lon="-3.554501">
        <ele>5.353628</ele>
        <time>2024-06-02T15:01:48.000Z</time>
      </trkpt>
      <trkpt lat="48.791073" lon="-3.554912">
        <ele>4.612533</ele>
        <time>2024-06-02T15:01:52.000Z</time>
      </trkpt>
      <trkpt lat="48.791239" lon="-3.554942">
        <ele>4.611004</ele>
        <time>2024-06-02T15:01:54.000Z</time>
      </trkpt>
      <trkpt lat="48.791359" lon="-3.554372">
        <ele>5.260356</ele>
        <time>2024-06-02T15:01:58.000Z</time>
      </trkpt>
      <trkpt lat="48.791474" lon="-3.554009">
        <ele>5.693815</ele>
        <time>2024-06-02T15:02:01.000Z</time>
      </trkpt>
      <trkpt lat="48.79167" lon="-3.553268">
        <ele>6.551644</ele>
        <time>2024-06-02T15:02:07.000Z</time>
      </trkpt>
      <trkpt lat="48.7918" lon="-3.552967">
        <ele>6.935536</ele>
        <time>2024-06-02T15:02:10.000Z</time>
      </trkpt>
      <trkpt lat="48.791968" lon="-3.552664">
        <ele>7.369201</ele>
        <time>2024-06-02T15:02:13.000Z</time>
      </trkpt>
      <trkpt lat="48.792215" lon="-3.552359">
        <ele>8.651887</ele>
        <time>2024-06-02T15:02:17.000Z</time>
      </trkpt>
      <trkpt lat="48.793407" lon="-3.551463">
        <ele>14.18967</ele>
        <time>2024-06-02T15:02:32.000Z</time>
      </trkpt>
      <trkpt lat="48.793787" lon="-3.551156">
        <ele>15.217358</ele>
        <time>2024-06-02T15:02:37.000Z</time>
      </trkpt>
      <trkpt lat="48.794027" lon="-3.550865">
        <ele>15.638333</ele>
        <time>2024-06-02T15:02:40.000Z</time>
      </trkpt>
      <trkpt lat="48.794205" lon="-3.550583">
        <ele>15.993965</ele>
        <time>2024-06-02T15:02:43.000Z</time>
      </trkpt>
      <trkpt lat="48.794358" lon="-3.550315">
        <ele>16.301448</ele>
        <time>2024-06-02T15:02:46.000Z</time>
      </trkpt>
      <trkpt lat="48.79447" lon="-3.549999">
        <ele>16.622529</ele>
        <time>2024-06-02T15:02:49.000Z</time>
      </trkpt>
      <trkpt lat="48.795428" lon="-3.546698">
        <ele>14.238871</ele>
        <time>2024-06-02T15:03:15.000Z</time>
      </trkpt>
      <trkpt lat="48.795644" lon="-3.54602">
        <ele>13.590218</ele>
        <time>2024-06-02T15:03:21.000Z</time>
      </trkpt>
      <trkpt lat="48.795777" lon="-3.545651">
        <ele>13.24076</ele>
        <time>2024-06-02T15:03:24.000Z</time>
      </trkpt>
      <trkpt lat="48.796442" lon="-3.544079">
        <ele>11.821065</ele>
        <time>2024-06-02T15:03:38.000Z</time>
      </trkpt>
      <trkpt lat="48.796999" lon="-3.542956">
        <ele>11.21871</ele>
        <time>2024-06-02T15:03:48.000Z</time>
      </trkpt>
      <trkpt lat="48.797032" lon="-3.542889">
        <ele>11.181851</ele>
        <time>2024-06-02T15:03:49.000Z</time>
      </trkpt>
      <trkpt lat="48.797311" lon="-3.542456">
        <ele>10.927804</ele>
        <time>2024-06-02T15:03:53.000Z</time>
      </trkpt>
      <trkpt lat="48.797709" lon="-3.541939">
        <ele>11.377784</ele>
        <time>2024-06-02T15:03:59.000Z</time>
      </trkpt>
      <trkpt lat="48.798362" lon="-3.54105">
        <ele>12.633923</ele>
        <time>2024-06-02T15:04:09.000Z</time>
      </trkpt>
      <trkpt lat="48.798594" lon="-3.540749">
        <ele>13.073872</ele>
        <time>2024-06-02T15:04:12.000Z</time>
      </trkpt>
      <trkpt lat="48.799865" lon="-3.539017">
        <ele>15.874832</ele>
        <time>2024-06-02T15:04:31.000Z</time>
      </trkpt>
      <trkpt lat="48.800203" lon="-3.538454">
        <ele>16.030011</ele>
        <time>2024-06-02T15:04:37.000Z</time>
      </trkpt>
      <trkpt lat="48.801651" lon="-3.535301">
        <ele>10.813942</ele>
        <time>2024-06-02T15:05:05.000Z</time>
      </trkpt>
      <trkpt lat="48.801821" lon="-3.534965">
        <ele>10.281158</ele>
        <time>2024-06-02T15:05:08.000Z</time>
      </trkpt>
      <trkpt lat="48.801961" lon="-3.534721">
        <ele>9.861737</ele>
        <time>2024-06-02T15:05:10.000Z</time>
      </trkpt>
      <trkpt lat="48.802195" lon="-3.534465">
        <ele>9.337708</ele>
        <time>2024-06-02T15:05:13.000Z</time>
      </trkpt>
      <trkpt lat="48.802534" lon="-3.534199">
        <ele>8.901116</ele>
        <time>2024-06-02T15:05:17.000Z</time>
      </trkpt>
      <trkpt lat="48.802954" lon="-3.534072">
        <ele>8.57769</ele>
        <time>2024-06-02T15:05:22.000Z</time>
      </trkpt>
      <trkpt lat="48.804488" lon="-3.533833">
        <ele>7.407586</ele>
        <time>2024-06-02T15:05:39.000Z</time>
      </trkpt>
      <trkpt lat="48.806222" lon="-3.533547">
        <ele>6.547184</ele>
        <time>2024-06-02T15:05:58.000Z</time>
      </trkpt>
      <trkpt lat="48.806589" lon="-3.533588">
        <ele>6.715099</ele>
        <time>2024-06-02T15:06:02.000Z</time>
      </trkpt>
      <trkpt lat="48.807393" lon="-3.533856">
        <ele>7.074546</ele>
        <time>2024-06-02T15:06:11.000Z</time>
      </trkpt>
      <trkpt lat="48.80789" lon="-3.533973">
        <ele>7.629101</ele>
        <time>2024-06-02T15:06:17.000Z</time>
      </trkpt>
      <trkpt lat="48.808243" lon="-3.533931">
        <ele>8.182742</ele>
        <time>2024-06-02T15:06:21.000Z</time>
      </trkpt>
      <trkpt lat="48.808431" lon="-3.533835">
        <ele>8.506136</ele>
        <time>2024-06-02T15:06:23.000Z</time>
      </trkpt>
      <trkpt lat="48.808674" lon="-3.533644">
        <ele>8.952388</ele>
        <time>2024-06-02T15:06:26.000Z</time>
      </trkpt>
      <trkpt lat="48.809169" lon="-3.533071">
        <ele>9.936251</ele>
        <time>2024-06-02T15:06:33.000Z</time>
      </trkpt>
      <trkpt lat="48.810119" lon="-3.531901">
        <ele>10.629464</ele>
        <time>2024-06-02T15:06:47.000Z</time>
      </trkpt>
      <trkpt lat="48.810204" lon="-3.531786">
        <ele>10.692032</ele>
        <time>2024-06-02T15:06:48.000Z</time>
      </trkpt>
      <trkpt lat="48.81082" lon="-3.53106">
        <ele>10.860731</ele>
        <time>2024-06-02T15:06:57.000Z</time>
      </trkpt>
      <trkpt lat="48.811201" lon="-3.53057">
        <ele>10.661955</ele>
        <time>2024-06-02T15:07:03.000Z</time>
      </trkpt>
      <trkpt lat="48.811375" lon="-3.530354">
        <ele>10.570268</ele>
        <time>2024-06-02T15:07:05.000Z</time>
      </trkpt>
      <trkpt lat="48.811417" lon="-3.530328">
        <ele>10.554398</ele>
        <time>2024-06-02T15:07:06.000Z</time>
      </trkpt>
      <trkpt lat="48.811481" lon="-3.530233">
        <ele>10.518235</ele>
        <time>2024-06-02T15:07:07.000Z</time>
      </trkpt>
      <trkpt lat="48.811825" lon="-3.529838">
        <ele>10.348516</ele>
        <time>2024-06-02T15:07:12.000Z</time>
      </trkpt>
      <trkpt lat="48.812326" lon="-3.529211">
        <ele>10.500867</ele>
        <time>2024-06-02T15:07:19.000Z</time>
      </trkpt>
      <trkpt lat="48.813501" lon="-3.527798">
        <ele>11.560503</ele>
        <time>2024-06-02T15:07:36.000Z</time>
      </trkpt>
      <trkpt lat="48.814309" lon="-3.526831">
        <ele>13.176611</ele>
        <time>2024-06-02T15:07:47.000Z</time>
      </trkpt>
      <trkpt lat="48.815106" lon="-3.525835">
        <ele>14.167005</ele>
        <time>2024-06-02T15:07:58.000Z</time>
      </trkpt>
      <trkpt lat="48.815458" lon="-3.525256">
        <ele>14.045608</ele>
        <time>2024-06-02T15:08:04.000Z</time>
      </trkpt>
      <trkpt lat="48.81565" lon="-3.524855">
        <ele>13.968536</ele>
        <time>2024-06-02T15:08:08.000Z</time>
      </trkpt>
      <trkpt lat="48.81574" lon="-3.524617">
        <ele>13.926052</ele>
        <time>2024-06-02T15:08:10.000Z</time>
      </trkpt>
      <trkpt lat="48.816007" lon="-3.523651">
        <ele>13.23167</ele>
        <time>2024-06-02T15:08:18.000Z</time>
      </trkpt>
      <trkpt lat="48.816181" lon="-3.523093">
        <ele>12.316537</ele>
        <time>2024-06-02T15:08:23.000Z</time>
      </trkpt>
      <trkpt lat="48.81681" lon="-3.52166">
        <ele>9.849469</ele>
        <time>2024-06-02T15:08:36.000Z</time>
      </trkpt>
      <trkpt lat="48.816956" lon="-3.521337">
        <ele>9.54643</ele>
        <time>2024-06-02T15:08:39.000Z</time>
      </trkpt>
      <trkpt lat="48.817418" lon="-3.519955">
        <ele>8.329488</ele>
        <time>2024-06-02T15:08:50.000Z</time>
      </trkpt>
      <trkpt lat="48.817616" lon="-3.519554">
        <ele>7.939372</ele>
        <time>2024-06-02T15:08:54.000Z</time>
      </trkpt>
      <trkpt lat="48.81783" lon="-3.519178">
        <ele>7.66914</ele>
        <time>2024-06-02T15:08:58.000Z</time>
      </trkpt>
      <trkpt lat="48.818528" lon="-3.518144">
        <ele>7.319253</ele>
        <time>2024-06-02T15:09:09.000Z</time>
      </trkpt>
      <trkpt lat="48.818831" lon="-3.517709">
        <ele>7.168174</ele>
        <time>2024-06-02T15:09:14.000Z</time>
      </trkpt>
      <trkpt lat="48.819131" lon="-3.517404">
        <ele>7.093766</ele>
        <time>2024-06-02T15:09:18.000Z</time>
      </trkpt>
      <trkpt lat="48.819428" lon="-3.517241">
        <ele>7.137573</ele>
        <time>2024-06-02T15:09:22.000Z</time>
      </trkpt>
      <trkpt lat="48.819737" lon="-3.517209">
        <ele>7.179861</ele>
        <time>2024-06-02T15:09:25.000Z</time>
      </trkpt>
      <trkpt lat="48.820139" lon="-3.517294">
        <ele>7.238767</ele>
        <time>2024-06-02T15:09:30.000Z</time>
      </trkpt>
      <trkpt lat="48.820949" lon="-3.51765">
        <ele>7.372986</ele>
        <time>2024-06-02T15:09:39.000Z</time>
      </trkpt>
      <trkpt lat="48.821563" lon="-3.517933">
        <ele>7.525516</ele>
        <time>2024-06-02T15:09:46.000Z</time>
      </trkpt>
      <trkpt lat="48.82173" lon="-3.517992">
        <ele>7.569103</ele>
        <time>2024-06-02T15:09:48.000Z</time>
      </trkpt>
      <trkpt lat="48.821952" lon="-3.518085">
        <ele>7.621225</ele>
        <time>2024-06-02T15:09:51.000Z</time>
      </trkpt>
      <trkpt lat="48.822395" lon="-3.518183">
        <ele>7.730804</ele>
        <time>2024-06-02T15:09:56.000Z</time>
      </trkpt>
      <trkpt lat="48.823207" lon="-3.518262">
        <ele>8.062096</ele>
        <time>2024-06-02T15:10:05.000Z</time>
      </trkpt>
      <trkpt lat="48.82392" lon="-3.518277">
        <ele>8.377528</ele>
        <time>2024-06-02T15:10:13.000Z</time>
      </trkpt>
      <trkpt lat="48.824143" lon="-3.518252">
        <ele>8.477551</ele>
        <time>2024-06-02T15:10:15.000Z</time>
      </trkpt>
      <trkpt lat="48.825299" lon="-3.517862">
        <ele>10.313881</ele>
        <time>2024-06-02T15:10:28.000Z</time>
      </trkpt>
      <trkpt lat="48.826094" lon="-3.517547">
        <ele>11.761801</ele>
        <time>2024-06-02T15:10:37.000Z</time>
      </trkpt>
      <trkpt lat="48.826912" lon="-3.517224">
        <ele>13.058938</ele>
        <time>2024-06-02T15:10:46.000Z</time>
      </trkpt>
      <trkpt lat="48.827148" lon="-3.517103">
        <ele>13.45849</ele>
        <time>2024-06-02T15:10:49.000Z</time>
      </trkpt>
      <trkpt lat="48.827301" lon="-3.51697">
        <ele>13.723654</ele>
        <time>2024-06-02T15:10:51.000Z</time>
      </trkpt>
      <trkpt lat="48.827444" lon="-3.516716">
        <ele>14.064122</ele>
        <time>2024-06-02T15:10:53.000Z</time>
      </trkpt>
      <trkpt lat="48.827616" lon="-3.516318">
        <ele>14.446207</ele>
        <time>2024-06-02T15:10:56.000Z</time>
      </trkpt>
      <trkpt lat="48.827621" lon="-3.516309">
        <ele>14.446193</ele>
        <time>2024-06-02T15:10:56.000Z</time>
      </trkpt>
      <trkpt lat="48.827611" lon="-3.516306">
        <ele>14.446198</ele>
        <time>2024-06-02T15:10:56.000Z</time>
      </trkpt>
      <trkpt lat="48.827659" lon="-3.516354">
        <ele>14.388756</ele>
        <time>2024-06-02T15:10:57.000Z</time>
      </trkpt>
      <trkpt lat="48.827653" lon="-3.516349">
        <ele>14.388765</ele>
        <time>2024-06-02T15:10:57.000Z</time>
      </trkpt>
      <trkpt lat="48.827661" lon="-3.516341">
        <ele>14.388763</ele>
        <time>2024-06-02T15:10:57.000Z</time>
      </trkpt>
      <trkpt lat="48.827716" lon="-3.516334">
        <ele>14.323834</ele>
        <time>2024-06-02T15:10:58.000Z</time>
      </trkpt>
      <trkpt lat="48.827706" lon="-3.51634">
        <ele>14.323832</ele>
        <time>2024-06-02T15:10:58.000Z</time>
      </trkpt>
      <trkpt lat="48.827709" lon="-3.516339">
        <ele>14.323823</ele>
        <time>2024-06-02T15:10:58.000Z</time>
      </trkpt>
      <trkpt lat="48.827822" lon="-3.51756">
        <ele>13.290104</ele>
        <time>2024-06-02T15:11:07.000Z</time>
      </trkpt>
      <trkpt lat="48.827913" lon="-3.518791">
        <ele>12.255375</ele>
        <time>2024-06-02T15:11:16.000Z</time>
      </trkpt>
      <trkpt lat="48.828031" lon="-3.520016">
        <ele>10.827357</ele>
        <time>2024-06-02T15:11:25.000Z</time>
      </trkpt>
      <trkpt lat="48.828129" lon="-3.521259">
        <ele>9.384201</ele>
        <time>2024-06-02T15:11:34.000Z</time>
      </trkpt>
      <trkpt lat="48.828239" lon="-3.522474">
        <ele>8.935363</ele>
        <time>2024-06-02T15:11:43.000Z</time>
      </trkpt>
      <trkpt lat="48.828081" lon="-3.522464">
        <ele>8.910749</ele>
        <time>2024-06-02T15:11:45.000Z</time>
      </trkpt>
      <trkpt lat="48.827238" lon="-3.522181">
        <ele>8.770796</ele>
        <time>2024-06-02T15:11:55.000Z</time>
      </trkpt>
      <trkpt lat="48.827215" lon="-3.522161">
        <ele>8.766441</ele>
        <time>2024-06-02T15:11:55.000Z</time>
      </trkpt>
      <trkpt lat="48.82732" lon="-3.521331">
        <ele>9.451563</ele>
        <time>2024-06-02T15:12:01.000Z</time>
      </trkpt>
      <trkpt lat="48.827333" lon="-3.521276">
        <ele>9.493492</ele>
        <time>2024-06-02T15:12:01.000Z</time>
      </trkpt>
      <trkpt lat="48.827359" lon="-3.521053">
        <ele>9.75702</ele>
        <time>2024-06-02T15:12:03.000Z</time>
      </trkpt>
      <trkpt lat="48.827419" lon="-3.520896">
        <ele>9.954253</ele>
        <time>2024-06-02T15:12:04.000Z</time>
      </trkpt>
      <trkpt lat="48.827477" lon="-3.520808">
        <ele>10.078734</ele>
        <time>2024-06-02T15:12:05.000Z</time>
      </trkpt>
      <trkpt lat="48.828072" lon="-3.520662">
        <ele>11.080371</ele>
        <time>2024-06-02T15:12:12.000Z</time>
      </trkpt>
      <trkpt lat="48.828058" lon="-3.520385">
        <ele>11.386896</ele>
        <time>2024-06-02T15:12:14.000Z</time>
      </trkpt>
      <trkpt lat="48.828009" lon="-3.519657">
        <ele>12.243055</ele>
        <time>2024-06-02T15:12:19.000Z</time>
      </trkpt>
      <trkpt lat="48.827887" lon="-3.518346">
        <ele>13.864956</ele>
        <time>2024-06-02T15:12:29.000Z</time>
      </trkpt>
      <trkpt lat="48.827855" lon="-3.518113">
        <ele>14.166197</ele>
        <time>2024-06-02T15:12:31.000Z</time>
      </trkpt>
      <trkpt lat="48.827706" lon="-3.516348">
        <ele>14.662111</ele>
        <time>2024-06-02T15:12:44.000Z</time>
      </trkpt>
      <trkpt lat="48.827645" lon="-3.516344">
        <ele>14.630789</ele>
        <time>2024-06-02T15:12:45.000Z</time>
      </trkpt>
      <trkpt lat="48.827619" lon="-3.516308">
        <ele>14.60684</ele>
        <time>2024-06-02T15:12:45.000Z</time>
      </trkpt>
      <trkpt lat="48.827443" lon="-3.516729">
        <ele>14.425119</ele>
        <time>2024-06-02T15:12:49.000Z</time>
      </trkpt>
      <trkpt lat="48.82729" lon="-3.516965">
        <ele>14.300568</ele>
        <time>2024-06-02T15:12:51.000Z</time>
      </trkpt>
      <trkpt lat="48.827142" lon="-3.517092">
        <ele>14.20359</ele>
        <time>2024-06-02T15:12:53.000Z</time>
      </trkpt>
      <trkpt lat="48.826898" lon="-3.51724">
        <ele>14.057422</ele>
        <time>2024-06-02T15:12:56.000Z</time>
      </trkpt>
      <trkpt lat="48.8261" lon="-3.517553">
        <ele>12.095135</ele>
        <time>2024-06-02T15:13:05.000Z</time>
      </trkpt>
      <trkpt lat="48.8253" lon="-3.517857">
        <ele>10.094068</ele>
        <time>2024-06-02T15:13:14.000Z</time>
      </trkpt>
      <trkpt lat="48.824153" lon="-3.518257">
        <ele>8.722377</ele>
        <time>2024-06-02T15:13:27.000Z</time>
      </trkpt>
      <trkpt lat="48.823925" lon="-3.518281">
        <ele>8.502361</ele>
        <time>2024-06-02T15:13:30.000Z</time>
      </trkpt>
      <trkpt lat="48.82321" lon="-3.51826">
        <ele>7.921996</ele>
        <time>2024-06-02T15:13:38.000Z</time>
      </trkpt>
      <trkpt lat="48.82239" lon="-3.518189">
        <ele>7.747267</ele>
        <time>2024-06-02T15:13:47.000Z</time>
      </trkpt>
      <trkpt lat="48.821943" lon="-3.518097">
        <ele>7.648722</ele>
        <time>2024-06-02T15:13:52.000Z</time>
      </trkpt>
      <trkpt lat="48.821742" lon="-3.517992">
        <ele>7.601844</ele>
        <time>2024-06-02T15:13:54.000Z</time>
      </trkpt>
      <trkpt lat="48.821555" lon="-3.517924">
        <ele>7.561502</ele>
        <time>2024-06-02T15:13:56.000Z</time>
      </trkpt>
      <trkpt lat="48.820955" lon="-3.517648">
        <ele>7.389596</ele>
        <time>2024-06-02T15:14:03.000Z</time>
      </trkpt>
      <trkpt lat="48.820144" lon="-3.5173">
        <ele>7.165202</ele>
        <time>2024-06-02T15:14:12.000Z</time>
      </trkpt>
      <trkpt lat="48.819723" lon="-3.517212">
        <ele>7.097375</ele>
        <time>2024-06-02T15:14:17.000Z</time>
      </trkpt>
      <trkpt lat="48.819436" lon="-3.517247">
        <ele>7.139837</ele>
        <time>2024-06-02T15:14:20.000Z</time>
      </trkpt>
      <trkpt lat="48.819138" lon="-3.5174">
        <ele>7.183839</ele>
        <time>2024-06-02T15:14:23.000Z</time>
      </trkpt>
      <trkpt lat="48.818834" lon="-3.517691">
        <ele>7.234629</ele>
        <time>2024-06-02T15:14:27.000Z</time>
      </trkpt>
      <trkpt lat="48.818521" lon="-3.518135">
        <ele>7.29388</ele>
        <time>2024-06-02T15:14:32.000Z</time>
      </trkpt>
      <trkpt lat="48.817839" lon="-3.519176">
        <ele>7.789437</ele>
        <time>2024-06-02T15:14:43.000Z</time>
      </trkpt>
      <trkpt lat="48.817613" lon="-3.519556">
        <ele>8.008946</ele>
        <time>2024-06-02T15:14:47.000Z</time>
      </trkpt>
      <trkpt lat="48.817423" lon="-3.519955">
        <ele>8.225876</ele>
        <time>2024-06-02T15:14:51.000Z</time>
      </trkpt>
      <trkpt lat="48.816958" lon="-3.521349">
        <ele>9.647232</ele>
        <time>2024-06-02T15:15:02.000Z</time>
      </trkpt>
      <trkpt lat="48.816814" lon="-3.521675">
        <ele>10.147851</ele>
        <time>2024-06-02T15:15:05.000Z</time>
      </trkpt>
      <trkpt lat="48.81619" lon="-3.523082">
        <ele>12.290102</ele>
        <time>2024-06-02T15:15:17.000Z</time>
      </trkpt>
      <trkpt lat="48.816001" lon="-3.523656">
        <ele>12.916229</ele>
        <time>2024-06-02T15:15:22.000Z</time>
      </trkpt>
      <trkpt lat="48.815723" lon="-3.524627">
        <ele>13.959976</ele>
        <time>2024-06-02T15:15:30.000Z</time>
      </trkpt>
      <trkpt lat="48.815654" lon="-3.524852">
        <ele>14.22973</ele>
        <time>2024-06-02T15:15:32.000Z</time>
      </trkpt>
      <trkpt lat="48.815464" lon="-3.525256">
        <ele>14.718952</ele>
        <time>2024-06-02T15:15:36.000Z</time>
      </trkpt>
      <trkpt lat="48.81511" lon="-3.525825">
        <ele>14.217218</ele>
        <time>2024-06-02T15:15:42.000Z</time>
      </trkpt>
      <trkpt lat="48.8143" lon="-3.52683">
        <ele>13.00171</ele>
        <time>2024-06-02T15:15:54.000Z</time>
      </trkpt>
      <trkpt lat="48.8135" lon="-3.527792">
        <ele>11.777269</ele>
        <time>2024-06-02T15:16:05.000Z</time>
      </trkpt>
      <trkpt lat="48.812326" lon="-3.529219">
        <ele>10.51627</ele>
        <time>2024-06-02T15:16:22.000Z</time>
      </trkpt>
      <trkpt lat="48.811811" lon="-3.529834">
        <ele>10.522562</ele>
        <time>2024-06-02T15:16:29.000Z</time>
      </trkpt>
      <trkpt lat="48.811478" lon="-3.530239">
        <ele>10.526686</ele>
        <time>2024-06-02T15:16:34.000Z</time>
      </trkpt>
      <trkpt lat="48.811411" lon="-3.530319">
        <ele>10.52755</ele>
        <time>2024-06-02T15:16:35.000Z</time>
      </trkpt>
      <trkpt lat="48.811392" lon="-3.530367">
        <ele>10.527933</ele>
        <time>2024-06-02T15:16:35.000Z</time>
      </trkpt>
      <trkpt lat="48.811198" lon="-3.530587">
        <ele>10.545393</ele>
        <time>2024-06-02T15:16:38.000Z</time>
      </trkpt>
      <trkpt lat="48.810809" lon="-3.531054">
        <ele>10.638655</ele>
        <time>2024-06-02T15:16:44.000Z</time>
      </trkpt>
      <trkpt lat="48.810214" lon="-3.531797">
        <ele>10.783853</ele>
        <time>2024-06-02T15:16:53.000Z</time>
      </trkpt>
      <trkpt lat="48.810116" lon="-3.531903">
        <ele>10.806652</ele>
        <time>2024-06-02T15:16:54.000Z</time>
      </trkpt>
      <trkpt lat="48.809156" lon="-3.533063">
        <ele>9.713254</ele>
        <time>2024-06-02T15:17:08.000Z</time>
      </trkpt>
      <trkpt lat="48.808685" lon="-3.533647">
        <ele>8.924128</ele>
        <time>2024-06-02T15:17:15.000Z</time>
      </trkpt>
      <trkpt lat="48.808438" lon="-3.533846">
        <ele>8.566207</ele>
        <time>2024-06-02T15:17:18.000Z</time>
      </trkpt>
      <trkpt lat="48.808233" lon="-3.533927">
        <ele>8.304391</ele>
        <time>2024-06-02T15:17:20.000Z</time>
      </trkpt>
      <trkpt lat="48.807888" lon="-3.53397">
        <ele>7.856195</ele>
        <time>2024-06-02T15:17:24.000Z</time>
      </trkpt>
      <trkpt lat="48.807379" lon="-3.533853">
        <ele>7.198493</ele>
        <time>2024-06-02T15:17:30.000Z</time>
      </trkpt>
      <trkpt lat="48.806598" lon="-3.5336">
        <ele>6.281589</ele>
        <time>2024-06-02T15:17:39.000Z</time>
      </trkpt>
      <trkpt lat="48.806215" lon="-3.533555">
        <ele>6.456247</ele>
        <time>2024-06-02T15:17:43.000Z</time>
      </trkpt>
      <trkpt lat="48.804486" lon="-3.533832">
        <ele>7.383563</ele>
        <time>2024-06-02T15:18:02.000Z</time>
      </trkpt>
      <trkpt lat="48.802951" lon="-3.534058">
        <ele>8.607422</ele>
        <time>2024-06-02T15:18:19.000Z</time>
      </trkpt>
      <trkpt lat="48.802546" lon="-3.534207">
        <ele>9.097761</ele>
        <time>2024-06-02T15:18:24.000Z</time>
      </trkpt>
      <trkpt lat="48.802183" lon="-3.534469">
        <ele>9.55882</ele>
        <time>2024-06-02T15:18:28.000Z</time>
      </trkpt>
      <trkpt lat="48.801966" lon="-3.53473">
        <ele>9.878359</ele>
        <time>2024-06-02T15:18:31.000Z</time>
      </trkpt>
      <trkpt lat="48.801815" lon="-3.534969">
        <ele>10.134079</ele>
        <time>2024-06-02T15:18:33.000Z</time>
      </trkpt>
      <trkpt lat="48.801643" lon="-3.535298">
        <ele>10.458933</ele>
        <time>2024-06-02T15:18:36.000Z</time>
      </trkpt>
      <trkpt lat="48.800196" lon="-3.538458">
        <ele>15.228255</ele>
        <time>2024-06-02T15:19:04.000Z</time>
      </trkpt>
      <trkpt lat="48.799882" lon="-3.539006">
        <ele>15.337545</ele>
        <time>2024-06-02T15:19:09.000Z</time>
      </trkpt>
      <trkpt lat="48.798602" lon="-3.540752">
        <ele>13.107177</ele>
        <time>2024-06-02T15:19:28.000Z</time>
      </trkpt>
      <trkpt lat="48.798354" lon="-3.54106">
        <ele>12.422617</ele>
        <time>2024-06-02T15:19:32.000Z</time>
      </trkpt>
      <trkpt lat="48.797702" lon="-3.541934">
        <ele>11.412948</ele>
        <time>2024-06-02T15:19:42.000Z</time>
      </trkpt>
      <trkpt lat="48.797303" lon="-3.542461">
        <ele>11.332235</ele>
        <time>2024-06-02T15:19:48.000Z</time>
      </trkpt>
      <trkpt lat="48.797038" lon="-3.542897">
        <ele>11.27244</ele>
        <time>2024-06-02T15:19:52.000Z</time>
      </trkpt>
      <trkpt lat="48.797007" lon="-3.542945">
        <ele>11.26376</ele>
        <time>2024-06-02T15:19:52.000Z</time>
      </trkpt>
      <trkpt lat="48.79644" lon="-3.544081">
        <ele>11.79135</ele>
        <time>2024-06-02T15:20:02.000Z</time>
      </trkpt>
      <trkpt lat="48.795764" lon="-3.545646">
        <ele>13.090459</ele>
        <time>2024-06-02T15:20:16.000Z</time>
      </trkpt>
      <trkpt lat="48.795654" lon="-3.546009">
        <ele>13.520371</ele>
        <time>2024-06-02T15:20:19.000Z</time>
      </trkpt>
      <trkpt lat="48.795415" lon="-3.546702">
        <ele>14.325223</ele>
        <time>2024-06-02T15:20:25.000Z</time>
      </trkpt>
      <trkpt lat="48.794474" lon="-3.549994">
        <ele>16.870997</ele>
        <time>2024-06-02T15:20:51.000Z</time>
      </trkpt>
      <trkpt lat="48.794358" lon="-3.550305">
        <ele>17.027785</ele>
        <time>2024-06-02T15:20:54.000Z</time>
      </trkpt>
      <trkpt lat="48.794209" lon="-3.550577">
        <ele>17.159666</ele>
        <time>2024-06-02T15:20:57.000Z</time>
      </trkpt>
      <trkpt lat="48.794029" lon="-3.550865">
        <ele>16.228029</ele>
        <time>2024-06-02T15:21:00.000Z</time>
      </trkpt>
      <trkpt lat="48.793779" lon="-3.551163">
        <ele>15.125234</ele>
        <time>2024-06-02T15:21:04.000Z</time>
      </trkpt>
      <trkpt lat="48.793422" lon="-3.551465">
        <ele>13.632245</ele>
        <time>2024-06-02T15:21:09.000Z</time>
      </trkpt>
      <trkpt lat="48.792221" lon="-3.552357">
        <ele>9.057277</ele>
        <time>2024-06-02T15:21:24.000Z</time>
      </trkpt>
      <trkpt lat="48.791975" lon="-3.552654">
        <ele>8.016017</ele>
        <time>2024-06-02T15:21:27.000Z</time>
      </trkpt>
      <trkpt lat="48.791796" lon="-3.552956">
        <ele>7.146558</ele>
        <time>2024-06-02T15:21:30.000Z</time>
      </trkpt>
      <trkpt lat="48.791682" lon="-3.553266">
        <ele>6.376864</ele>
        <time>2024-06-02T15:21:33.000Z</time>
      </trkpt>
      <trkpt lat="48.791477" lon="-3.554002">
        <ele>4.933439</ele>
        <time>2024-06-02T15:21:39.000Z</time>
      </trkpt>
      <trkpt lat="48.791364" lon="-3.554388">
        <ele>4.967452</ele>
        <time>2024-06-02T15:21:42.000Z</time>
      </trkpt>
      <trkpt lat="48.791239" lon="-3.554956">
        <ele>5.018423</ele>
        <time>2024-06-02T15:21:46.000Z</time>
      </trkpt>
      <trkpt lat="48.791233" lon="-3.555149">
        <ele>5.035033</ele>
        <time>2024-06-02T15:21:47.000Z</time>
      </trkpt>
      <trkpt lat="48.791067" lon="-3.554923">
        <ele>5.062489</ele>
        <time>2024-06-02T15:21:49.000Z</time>
      </trkpt>
      <trkpt lat="48.790817" lon="-3.554507">
        <ele>5.110408</ele>
        <time>2024-06-02T15:21:53.000Z</time>
      </trkpt>
      <trkpt lat="48.79072" lon="-3.554342">
        <ele>5.129553</ele>
        <time>2024-06-02T15:21:55.000Z</time>
      </trkpt>
      <trkpt lat="48.790649" lon="-3.55419">
        <ele>5.14444</ele>
        <time>2024-06-02T15:21:56.000Z</time>
      </trkpt>
      <trkpt lat="48.790587" lon="-3.554081">
        <ele>5.230743</ele>
        <time>2024-06-02T15:21:57.000Z</time>
      </trkpt>
      <trkpt lat="48.790501" lon="-3.553762">
        <ele>5.987647</ele>
        <time>2024-06-02T15:22:00.000Z</time>
      </trkpt>
      <trkpt lat="48.790483" lon="-3.553665">
        <ele>6.203018</ele>
        <time>2024-06-02T15:22:01.000Z</time>
      </trkpt>
      <trkpt lat="48.790474" lon="-3.553485">
        <ele>6.593282</ele>
        <time>2024-06-02T15:22:02.000Z</time>
      </trkpt>
      <trkpt lat="48.790456" lon="-3.553312">
        <ele>7.011416</ele>
        <time>2024-06-02T15:22:03.000Z</time>
      </trkpt>
      <trkpt lat="48.790455" lon="-3.553271">
        <ele>7.098694</ele>
        <time>2024-06-02T15:22:03.000Z</time>
      </trkpt>
      <trkpt lat="48.790381" lon="-3.552686">
        <ele>8.390994</ele>
        <time>2024-06-02T15:22:07.000Z</time>
      </trkpt>
      <trkpt lat="48.790243" lon="-3.552349">
        <ele>9.23873</ele>
        <time>2024-06-02T15:22:10.000Z</time>
      </trkpt>
      <trkpt lat="48.790063" lon="-3.552112">
        <ele>10.092041</ele>
        <time>2024-06-02T15:22:13.000Z</time>
      </trkpt>
      <trkpt lat="48.789851" lon="-3.551898">
        <ele>10.930391</ele>
        <time>2024-06-02T15:22:16.000Z</time>
      </trkpt>
      <trkpt lat="48.789711" lon="-3.551728">
        <ele>11.678162</ele>
        <time>2024-06-02T15:22:18.000Z</time>
      </trkpt>
      <trkpt lat="48.789572" lon="-3.551608">
        <ele>12.439993</ele>
        <time>2024-06-02T15:22:20.000Z</time>
      </trkpt>
      <trkpt lat="48.789339" lon="-3.551428">
        <ele>13.68719</ele>
        <time>2024-06-02T15:22:23.000Z</time>
      </trkpt>
      <trkpt lat="48.788968" lon="-3.551269">
        <ele>15.570572</ele>
        <time>2024-06-02T15:22:27.000Z</time>
      </trkpt>
      <trkpt lat="48.788707" lon="-3.551231">
        <ele>16.798988</ele>
        <time>2024-06-02T15:22:30.000Z</time>
      </trkpt>
      <trkpt lat="48.78818" lon="-3.55128">
        <ele>19.418371</ele>
        <time>2024-06-02T15:22:36.000Z</time>
      </trkpt>
      <trkpt lat="48.787861" lon="-3.551122">
        <ele>20.028635</ele>
        <time>2024-06-02T15:22:40.000Z</time>
      </trkpt>
      <trkpt lat="48.787719" lon="-3.55094">
        <ele>20.1839</ele>
        <time>2024-06-02T15:22:42.000Z</time>
      </trkpt>
      <trkpt lat="48.787579" lon="-3.550698">
        <ele>20.35174</ele>
        <time>2024-06-02T15:22:44.000Z</time>
      </trkpt>
      <trkpt lat="48.787569" lon="-3.550663">
        <ele>20.365666</ele>
        <time>2024-06-02T15:22:44.000Z</time>
      </trkpt>
      <trkpt lat="48.78758" lon="-3.550672">
        <ele>20.369713</ele>
        <time>2024-06-02T15:22:44.000Z</time>
      </trkpt>
      <trkpt lat="48.787567" lon="-3.550651">
        <ele>20.373767</ele>
        <time>2024-06-02T15:22:44.000Z</time>
      </trkpt>
      <trkpt lat="48.787509" lon="-3.550416">
        <ele>20.518733</ele>
        <time>2024-06-02T15:22:46.000Z</time>
      </trkpt>
      <trkpt lat="48.787464" lon="-3.550108">
        <ele>20.687933</ele>
        <time>2024-06-02T15:22:48.000Z</time>
      </trkpt>
      <trkpt lat="48.787466" lon="-3.549749">
        <ele>20.881504</ele>
        <time>2024-06-02T15:22:51.000Z</time>
      </trkpt>
      <trkpt lat="48.787506" lon="-3.549268">
        <ele>21.135228</ele>
        <time>2024-06-02T15:22:55.000Z</time>
      </trkpt>
      <trkpt lat="48.787738" lon="-3.547324">
        <ele>18.592956</ele>
        <time>2024-06-02T15:23:09.000Z</time>
      </trkpt>
      <trkpt lat="48.787851" lon="-3.546404">
        <ele>17.092425</ele>
        <time>2024-06-02T15:23:16.000Z</time>
      </trkpt>
      <trkpt lat="48.787893" lon="-3.54585">
        <ele>17.035365</ele>
        <time>2024-06-02T15:23:20.000Z</time>
      </trkpt>
      <trkpt lat="48.787884" lon="-3.545411">
        <ele>17.16282</ele>
        <time>2024-06-02T15:23:23.000Z</time>
      </trkpt>
      <trkpt lat="48.787823" lon="-3.54476">
        <ele>17.350212</ele>
        <time>2024-06-02T15:23:28.000Z</time>
      </trkpt>
      <trkpt lat="48.787786" lon="-3.544453">
        <ele>17.438848</ele>
        <time>2024-06-02T15:23:30.000Z</time>
      </trkpt>
      <trkpt lat="48.787576" lon="-3.543553">
        <ele>17.784182</ele>
        <time>2024-06-02T15:23:37.000Z</time>
      </trkpt>
      <trkpt lat="48.786778" lon="-3.541715">
        <ele>20.024307</ele>
        <time>2024-06-02T15:23:53.000Z</time>
      </trkpt>
      <trkpt lat="48.786373" lon="-3.540712">
        <ele>20.642764</ele>
        <time>2024-06-02T15:24:02.000Z</time>
      </trkpt>
      <trkpt lat="48.786338" lon="-3.540635">
        <ele>20.6602</ele>
        <time>2024-06-02T15:24:03.000Z</time>
      </trkpt>
      <trkpt lat="48.786313" lon="-3.540585">
        <ele>20.672324</ele>
        <time>2024-06-02T15:24:03.000Z</time>
      </trkpt>
      <trkpt lat="48.786296" lon="-3.540529">
        <ele>20.686838</ele>
        <time>2024-06-02T15:24:03.000Z</time>
      </trkpt>
      <trkpt lat="48.785915" lon="-3.539624">
        <ele>20.9082</ele>
        <time>2024-06-02T15:24:11.000Z</time>
      </trkpt>
      <trkpt lat="48.78527" lon="-3.53792">
        <ele>21.107216</ele>
        <time>2024-06-02T15:24:25.000Z</time>
      </trkpt>
      <trkpt lat="48.784312" lon="-3.534793">
        <ele>21.67948</ele>
        <time>2024-06-02T15:24:50.000Z</time>
      </trkpt>
      <trkpt lat="48.783662" lon="-3.53298">
        <ele>23.338961</ele>
        <time>2024-06-02T15:25:05.000Z</time>
      </trkpt>
      <trkpt lat="48.783248" lon="-3.531972">
        <ele>24.691613</ele>
        <time>2024-06-02T15:25:14.000Z</time>
      </trkpt>
      <trkpt lat="48.782682" lon="-3.530745">
        <ele>28.034771</ele>
        <time>2024-06-02T15:25:25.000Z</time>
      </trkpt>
      <trkpt lat="48.782406" lon="-3.530231">
        <ele>29.668551</ele>
        <time>2024-06-02T15:25:30.000Z</time>
      </trkpt>
      <trkpt lat="48.782036" lon="-3.529685">
        <ele>31.589543</ele>
        <time>2024-06-02T15:25:36.000Z</time>
      </trkpt>
      <trkpt lat="48.781669" lon="-3.529232">
        <ele>33.223254</ele>
        <time>2024-06-02T15:25:41.000Z</time>
      </trkpt>
      <trkpt lat="48.781133" lon="-3.528767">
        <ele>35.370858</ele>
        <time>2024-06-02T15:25:48.000Z</time>
      </trkpt>
      <trkpt lat="48.780896" lon="-3.528586">
        <ele>36.288947</ele>
        <time>2024-06-02T15:25:51.000Z</time>
      </trkpt>
      <trkpt lat="48.780638" lon="-3.52841">
        <ele>37.264123</ele>
        <time>2024-06-02T15:25:54.000Z</time>
      </trkpt>
      <trkpt lat="48.780468" lon="-3.52835">
        <ele>37.850081</ele>
        <time>2024-06-02T15:25:56.000Z</time>
      </trkpt>
      <trkpt lat="48.778967" lon="-3.527581">
        <ele>43.816518</ele>
        <time>2024-06-02T15:26:14.000Z</time>
      </trkpt>
      <trkpt lat="48.77878" lon="-3.527515">
        <ele>44.561081</ele>
        <time>2024-06-02T15:26:16.000Z</time>
      </trkpt>
      <trkpt lat="48.777706" lon="-3.526955">
        <ele>53.135512</ele>
        <time>2024-06-02T15:26:29.000Z</time>
      </trkpt>
      <trkpt lat="48.777397" lon="-3.52671">
        <ele>55.913717</ele>
        <time>2024-06-02T15:26:33.000Z</time>
      </trkpt>
      <trkpt lat="48.776809" lon="-3.526139">
        <ele>61.624344</ele>
        <time>2024-06-02T15:26:41.000Z</time>
      </trkpt>
      <trkpt lat="48.776685" lon="-3.525986">
        <ele>62.977564</ele>
        <time>2024-06-02T15:26:43.000Z</time>
      </trkpt>
      <trkpt lat="48.775876" lon="-3.52477">
        <ele>72.673388</ele>
        <time>2024-06-02T15:26:56.000Z</time>
      </trkpt>
      <trkpt lat="48.774982" lon="-3.523244">
        <ele>80.711497</ele>
        <time>2024-06-02T15:27:11.000Z</time>
      </trkpt>
      <trkpt lat="48.774008" lon="-3.521667">
        <ele>85.754302</ele>
        <time>2024-06-02T15:27:27.000Z</time>
      </trkpt>
      <trkpt lat="48.773522" lon="-3.520809">
        <ele>87.267889</ele>
        <time>2024-06-02T15:27:35.000Z</time>
      </trkpt>
      <trkpt lat="48.774021" lon="-3.521662">
        <ele>86.080047</ele>
        <time>2024-06-02T15:27:43.000Z</time>
      </trkpt>
      <trkpt lat="48.774978" lon="-3.523245">
        <ele>81.060108</ele>
        <time>2024-06-02T15:27:59.000Z</time>
      </trkpt>
      <trkpt lat="48.775878" lon="-3.524765">
        <ele>72.475835</ele>
        <time>2024-06-02T15:28:14.000Z</time>
      </trkpt>
      <trkpt lat="48.776674" lon="-3.525992">
        <ele>63.151394</ele>
        <time>2024-06-02T15:28:27.000Z</time>
      </trkpt>
      <trkpt lat="48.776799" lon="-3.526135">
        <ele>61.735353</ele>
        <time>2024-06-02T15:28:29.000Z</time>
      </trkpt>
      <trkpt lat="48.777392" lon="-3.526718">
        <ele>55.46182</ele>
        <time>2024-06-02T15:28:37.000Z</time>
      </trkpt>
      <trkpt lat="48.777711" lon="-3.526963">
        <ele>52.782247</ele>
        <time>2024-06-02T15:28:41.000Z</time>
      </trkpt>
      <trkpt lat="48.778774" lon="-3.527507">
        <ele>45.295387</ele>
        <time>2024-06-02T15:28:53.000Z</time>
      </trkpt>
      <trkpt lat="48.778965" lon="-3.527577">
        <ele>43.986287</ele>
        <time>2024-06-02T15:28:55.000Z</time>
      </trkpt>
      <trkpt lat="48.780472" lon="-3.528346">
        <ele>37.931188</ele>
        <time>2024-06-02T15:29:13.000Z</time>
      </trkpt>
      <trkpt lat="48.780635" lon="-3.528413">
        <ele>37.366437</ele>
        <time>2024-06-02T15:29:15.000Z</time>
      </trkpt>
      <trkpt lat="48.780888" lon="-3.528586">
        <ele>36.426577</ele>
        <time>2024-06-02T15:29:18.000Z</time>
      </trkpt>
      <trkpt lat="48.781125" lon="-3.528759">
        <ele>35.454561</ele>
        <time>2024-06-02T15:29:21.000Z</time>
      </trkpt>
      <trkpt lat="48.781653" lon="-3.529233">
        <ele>33.172976</ele>
        <time>2024-06-02T15:29:28.000Z</time>
      </trkpt>
      <trkpt lat="48.78204" lon="-3.529683">
        <ele>31.440624</ele>
        <time>2024-06-02T15:29:33.000Z</time>
      </trkpt>
      <trkpt lat="48.7824" lon="-3.530235">
        <ele>29.560434</ele>
        <time>2024-06-02T15:29:39.000Z</time>
      </trkpt>
      <trkpt lat="48.782683" lon="-3.530738">
        <ele>28.089516</ele>
        <time>2024-06-02T15:29:44.000Z</time>
      </trkpt>
      <trkpt lat="48.783253" lon="-3.531962">
        <ele>24.799793</ele>
        <time>2024-06-02T15:29:55.000Z</time>
      </trkpt>
      <trkpt lat="48.783675" lon="-3.532983">
        <ele>23.183842</ele>
        <time>2024-06-02T15:30:04.000Z</time>
      </trkpt>
      <trkpt lat="48.784309" lon="-3.534792">
        <ele>21.570225</ele>
        <time>2024-06-02T15:30:19.000Z</time>
      </trkpt>
      <trkpt lat="48.78528" lon="-3.537917">
        <ele>21.08705</ele>
        <time>2024-06-02T15:30:44.000Z</time>
      </trkpt>
      <trkpt lat="48.785919" lon="-3.539609">
        <ele>21.050617</ele>
        <time>2024-06-02T15:30:58.000Z</time>
      </trkpt>
      <trkpt lat="48.786285" lon="-3.540539">
        <ele>20.614095</ele>
        <time>2024-06-02T15:31:06.000Z</time>
      </trkpt>
      <trkpt lat="48.78631" lon="-3.540584">
        <ele>20.585455</ele>
        <time>2024-06-02T15:31:06.000Z</time>
      </trkpt>
      <trkpt lat="48.786345" lon="-3.540638">
        <ele>20.561557</ele>
        <time>2024-06-02T15:31:07.000Z</time>
      </trkpt>
      <trkpt lat="48.786365" lon="-3.540707">
        <ele>20.527188</ele>
        <time>2024-06-02T15:31:08.000Z</time>
      </trkpt>
      <trkpt lat="48.786791" lon="-3.54172">
        <ele>20.049915</ele>
        <time>2024-06-02T15:31:17.000Z</time>
      </trkpt>
      <trkpt lat="48.787563" lon="-3.543538">
        <ele>17.846362</ele>
        <time>2024-06-02T15:31:33.000Z</time>
      </trkpt>
      <trkpt lat="48.787787" lon="-3.544462">
        <ele>17.041026</ele>
        <time>2024-06-02T15:31:40.000Z</time>
      </trkpt>
      <trkpt lat="48.787819" lon="-3.544761">
        <ele>17.131816</ele>
        <time>2024-06-02T15:31:42.000Z</time>
      </trkpt>
      <trkpt lat="48.787891" lon="-3.545414">
        <ele>17.32376</ele>
        <time>2024-06-02T15:31:47.000Z</time>
      </trkpt>
      <trkpt lat="48.78789" lon="-3.545853">
        <ele>17.454288</ele>
        <time>2024-06-02T15:31:50.000Z</time>
      </trkpt>
      <trkpt lat="48.787847" lon="-3.546393">
        <ele>17.61784</ele>
        <time>2024-06-02T15:31:54.000Z</time>
      </trkpt>
      <trkpt lat="48.78774" lon="-3.547314">
        <ele>18.3196</ele>
        <time>2024-06-02T15:32:01.000Z</time>
      </trkpt>
      <trkpt lat="48.787523" lon="-3.549276">
        <ele>21.356606</ele>
        <time>2024-06-02T15:32:16.000Z</time>
      </trkpt>
      <trkpt lat="48.787466" lon="-3.549744">
        <ele>21.871503</ele>
        <time>2024-06-02T15:32:19.000Z</time>
      </trkpt>
      <trkpt lat="48.787458" lon="-3.550107">
        <ele>21.310644</ele>
        <time>2024-06-02T15:32:22.000Z</time>
      </trkpt>
      <trkpt lat="48.787497" lon="-3.550409">
        <ele>20.8204</ele>
        <time>2024-06-02T15:32:24.000Z</time>
      </trkpt>
      <trkpt lat="48.787567" lon="-3.550649">
        <ele>20.400373</ele>
        <time>2024-06-02T15:32:26.000Z</time>
      </trkpt>
      <trkpt lat="48.78758" lon="-3.550663">
        <ele>20.388637</ele>
        <time>2024-06-02T15:32:26.000Z</time>
      </trkpt>
      <trkpt lat="48.787568" lon="-3.550667">
        <ele>20.376928</ele>
        <time>2024-06-02T15:32:26.000Z</time>
      </trkpt>
      <trkpt lat="48.787586" lon="-3.55069">
        <ele>20.336588</ele>
        <time>2024-06-02T15:32:26.000Z</time>
      </trkpt>
      <trkpt lat="48.787715" lon="-3.550936">
        <ele>19.850259</ele>
        <time>2024-06-02T15:32:28.000Z</time>
      </trkpt>
      <trkpt lat="48.787856" lon="-3.551122">
        <ele>19.400408</ele>
        <time>2024-06-02T15:32:30.000Z</time>
      </trkpt>
      <trkpt lat="48.788169" lon="-3.551287">
        <ele>18.621033</ele>
        <time>2024-06-02T15:32:34.000Z</time>
      </trkpt>
      <trkpt lat="48.788722" lon="-3.55123">
        <ele>16.950216</ele>
        <time>2024-06-02T15:32:40.000Z</time>
      </trkpt>
      <trkpt lat="48.788963" lon="-3.551271">
        <ele>15.747684</ele>
        <time>2024-06-02T15:32:43.000Z</time>
      </trkpt>
      <trkpt lat="48.789354" lon="-3.551418">
        <ele>13.903956</ele>
        <time>2024-06-02T15:32:47.000Z</time>
      </trkpt>
      <trkpt lat="48.789571" lon="-3.551593">
        <ele>12.683048</ele>
        <time>2024-06-02T15:32:50.000Z</time>
      </trkpt>
      <trkpt lat="48.789708" lon="-3.551739">
        <ele>11.937249</ele>
        <time>2024-06-02T15:32:52.000Z</time>
      </trkpt>
      <trkpt lat="48.789855" lon="-3.551884">
        <ele>11.109023</ele>
        <time>2024-06-02T15:32:54.000Z</time>
      </trkpt>
      <trkpt lat="48.790046" lon="-3.552101">
        <ele>9.921299</ele>
        <time>2024-06-02T15:32:57.000Z</time>
      </trkpt>
      <trkpt lat="48.79026" lon="-3.552364">
        <ele>8.948436</ele>
        <time>2024-06-02T15:33:00.000Z</time>
      </trkpt>
      <trkpt lat="48.790394" lon="-3.552687">
        <ele>8.294477</ele>
        <time>2024-06-02T15:33:03.000Z</time>
      </trkpt>
      <trkpt lat="48.790455" lon="-3.553258">
        <ele>7.2976</ele>
        <time>2024-06-02T15:33:07.000Z</time>
      </trkpt>
      <trkpt lat="48.790464" lon="-3.553308">
        <ele>7.230282</ele>
        <time>2024-06-02T15:33:07.000Z</time>
      </trkpt>
      <trkpt lat="48.790463" lon="-3.553492">
        <ele>6.907722</ele>
        <time>2024-06-02T15:33:08.000Z</time>
      </trkpt>
      <trkpt lat="48.790487" lon="-3.553666">
        <ele>6.606682</ele>
        <time>2024-06-02T15:33:09.000Z</time>
      </trkpt>
      <trkpt lat="48.790505" lon="-3.55377">
        <ele>6.440536</ele>
        <time>2024-06-02T15:33:10.000Z</time>
      </trkpt>
      <trkpt lat="48.790586" lon="-3.554075">
        <ele>5.856659</ele>
        <time>2024-06-02T15:33:12.000Z</time>
      </trkpt>
      <trkpt lat="48.790638" lon="-3.554196">
        <ele>5.618739</ele>
        <time>2024-06-02T15:33:13.000Z</time>
      </trkpt>
      <trkpt lat="48.790717" lon="-3.554336">
        <ele>5.319912</ele>
        <time>2024-06-02T15:33:14.000Z</time>
      </trkpt>
      <trkpt lat="48.790806" lon="-3.554502">
        <ele>4.935296</ele>
        <time>2024-06-02T15:33:16.000Z</time>
      </trkpt>
      <trkpt lat="48.791072" lon="-3.554915">
        <ele>4.846055</ele>
        <time>2024-06-02T15:33:20.000Z</time>
      </trkpt>
      <trkpt lat="48.791247" lon="-3.554945">
        <ele>5.012107</ele>
        <time>2024-06-02T15:33:22.000Z</time>
      </trkpt>
      <trkpt lat="48.791377" lon="-3.55437">
        <ele>5.402959</ele>
        <time>2024-06-02T15:33:26.000Z</time>
      </trkpt>
      <trkpt lat="48.791465" lon="-3.554004">
        <ele>5.663872</ele>
        <time>2024-06-02T15:33:29.000Z</time>
      </trkpt>
      <trkpt lat="48.791668" lon="-3.553268">
        <ele>6.180212</ele>
        <time>2024-06-02T15:33:35.000Z</time>
      </trkpt>
      <trkpt lat="48.791801" lon="-3.55296">
        <ele>6.535911</ele>
        <time>2024-06-02T15:33:38.000Z</time>
      </trkpt>
      <trkpt lat="48.791966" lon="-3.552658">
        <ele>7.604631</ele>
        <time>2024-06-02T15:33:41.000Z</time>
      </trkpt>
      <trkpt lat="48.792225" lon="-3.552361">
        <ele>8.884482</ele>
        <time>2024-06-02T15:33:45.000Z</time>
      </trkpt>
      <trkpt lat="48.793422" lon="-3.551465">
        <ele>13.949688</ele>
        <time>2024-06-02T15:34:00.000Z</time>
      </trkpt>
      <trkpt lat="48.793783" lon="-3.55116">
        <ele>14.867533</ele>
        <time>2024-06-02T15:34:05.000Z</time>
      </trkpt>
      <trkpt lat="48.794033" lon="-3.550861">
        <ele>15.54553</ele>
        <time>2024-06-02T15:34:09.000Z</time>
      </trkpt>
      <trkpt lat="48.794211" lon="-3.55057">
        <ele>16.118281</ele>
        <time>2024-06-02T15:34:12.000Z</time>
      </trkpt>
      <trkpt lat="48.794353" lon="-3.55031">
        <ele>16.613462</ele>
        <time>2024-06-02T15:34:14.000Z</time>
      </trkpt>
      <trkpt lat="48.794478" lon="-3.549989">
        <ele>17.130585</ele>
        <time>2024-06-02T15:34:17.000Z</time>
      </trkpt>
      <trkpt lat="48.795416" lon="-3.546692">
        <ele>14.319997</ele>
        <time>2024-06-02T15:34:43.000Z</time>
      </trkpt>
      <trkpt lat="48.795643" lon="-3.546018">
        <ele>13.612462</ele>
        <time>2024-06-02T15:34:49.000Z</time>
      </trkpt>
      <trkpt lat="48.795766" lon="-3.545655">
        <ele>13.231275</ele>
        <time>2024-06-02T15:34:52.000Z</time>
      </trkpt>
      <trkpt lat="48.796444" lon="-3.544079">
        <ele>11.836948</ele>
        <time>2024-06-02T15:35:06.000Z</time>
      </trkpt>
      <trkpt lat="48.797004" lon="-3.542957">
        <ele>11.069102</ele>
        <time>2024-06-02T15:35:16.000Z</time>
      </trkpt>
      <trkpt lat="48.797031" lon="-3.542893">
        <ele>11.022131</ele>
        <time>2024-06-02T15:35:17.000Z</time>
      </trkpt>
      <trkpt lat="48.797314" lon="-3.542464">
        <ele>11.024933</ele>
        <time>2024-06-02T15:35:21.000Z</time>
      </trkpt>
      <trkpt lat="48.797705" lon="-3.541926">
        <ele>11.558883</ele>
        <time>2024-06-02T15:35:27.000Z</time>
      </trkpt>
      <trkpt lat="48.798362" lon="-3.541051">
        <ele>12.449951</ele>
        <time>2024-06-02T15:35:37.000Z</time>
      </trkpt>
      <trkpt lat="48.798598" lon="-3.540745">
        <ele>12.858107</ele>
        <time>2024-06-02T15:35:40.000Z</time>
      </trkpt>
      <trkpt lat="48.799877" lon="-3.539003">
        <ele>16.366481</ele>
        <time>2024-06-02T15:35:59.000Z</time>
      </trkpt>
      <trkpt lat="48.800192" lon="-3.538464">
        <ele>15.561593</ele>
        <time>2024-06-02T15:36:04.000Z</time>
      </trkpt>
      <trkpt lat="48.801641" lon="-3.535301">
        <ele>10.71992</ele>
        <time>2024-06-02T15:36:32.000Z</time>
      </trkpt>
      <trkpt lat="48.801824" lon="-3.534977">
        <ele>10.10713</ele>
        <time>2024-06-02T15:36:35.000Z</time>
      </trkpt>
      <trkpt lat="48.801973" lon="-3.53473">
        <ele>9.624737</ele>
        <time>2024-06-02T15:36:37.000Z</time>
      </trkpt>
      <trkpt lat="48.802195" lon="-3.534478">
        <ele>9.302034</ele>
        <time>2024-06-02T15:36:40.000Z</time>
      </trkpt>
      <trkpt lat="48.802549" lon="-3.534192">
        <ele>8.975143</ele>
        <time>2024-06-02T15:36:44.000Z</time>
      </trkpt>
      <trkpt lat="48.80296" lon="-3.534075">
        <ele>8.6275</ele>
        <time>2024-06-02T15:36:49.000Z</time>
      </trkpt>
      <trkpt lat="48.804487" lon="-3.533832">
        <ele>7.393629</ele>
        <time>2024-06-02T15:37:06.000Z</time>
      </trkpt>
      <trkpt lat="48.806224" lon="-3.533544">
        <ele>6.645167</ele>
        <time>2024-06-02T15:37:25.000Z</time>
      </trkpt>
      <trkpt lat="48.806589" lon="-3.533603">
        <ele>6.680357</ele>
        <time>2024-06-02T15:37:29.000Z</time>
      </trkpt>
      <trkpt lat="48.807387" lon="-3.533857">
        <ele>6.901435</ele>
        <time>2024-06-02T15:37:38.000Z</time>
      </trkpt>
      <trkpt lat="48.807897" lon="-3.533977">
        <ele>7.708858</ele>
        <time>2024-06-02T15:37:44.000Z</time>
      </trkpt>
      <trkpt lat="48.808237" lon="-3.533925">
        <ele>8.259085</ele>
        <time>2024-06-02T15:37:48.000Z</time>
      </trkpt>
      <trkpt lat="48.808428" lon="-3.533836">
        <ele>8.580501</ele>
        <time>2024-06-02T15:37:50.000Z</time>
      </trkpt>
      <trkpt lat="48.808687" lon="-3.533636">
        <ele>9.023997</ele>
        <time>2024-06-02T15:37:53.000Z</time>
      </trkpt>
      <trkpt lat="48.809156" lon="-3.533072">
        <ele>9.799121</ele>
        <time>2024-06-02T15:38:00.000Z</time>
      </trkpt>
      <trkpt lat="48.810111" lon="-3.531914">
        <ele>10.768655</ele>
        <time>2024-06-02T15:38:14.000Z</time>
      </trkpt>
      <trkpt lat="48.810212" lon="-3.531792">
        <ele>10.865944</ele>
        <time>2024-06-02T15:38:15.000Z</time>
      </trkpt>
      <trkpt lat="48.810822" lon="-3.531044">
        <ele>10.785602</ele>
        <time>2024-06-02T15:38:24.000Z</time>
      </trkpt>
      <trkpt lat="48.811195" lon="-3.530579">
        <ele>10.575722</ele>
        <time>2024-06-02T15:38:29.000Z</time>
      </trkpt>
      <trkpt lat="48.81139" lon="-3.530356">
        <ele>10.478901</ele>
        <time>2024-06-02T15:38:32.000Z</time>
      </trkpt>
      <trkpt lat="48.811413" lon="-3.530315">
        <ele>10.462153</ele>
        <time>2024-06-02T15:38:32.000Z</time>
      </trkpt>
      <trkpt lat="48.811482" lon="-3.530234">
        <ele>10.423963</ele>
        <time>2024-06-02T15:38:33.000Z</time>
      </trkpt>
      <trkpt lat="48.811813" lon="-3.529829">
        <ele>10.297609</ele>
        <time>2024-06-02T15:38:38.000Z</time>
      </trkpt>
      <trkpt lat="48.812327" lon="-3.529206">
        <ele>10.576011</ele>
        <time>2024-06-02T15:38:45.000Z</time>
      </trkpt>
      <trkpt lat="48.813492" lon="-3.5278">
        <ele>11.669363</ele>
        <time>2024-06-02T15:39:02.000Z</time>
      </trkpt>
      <trkpt lat="48.814292" lon="-3.526835">
        <ele>13.239643</ele>
        <time>2024-06-02T15:39:13.000Z</time>
      </trkpt>
      <trkpt lat="48.815108" lon="-3.52583">
        <ele>13.989375</ele>
        <time>2024-06-02T15:39:25.000Z</time>
      </trkpt>
      <trkpt lat="48.815469" lon="-3.52526">
        <ele>14.137353</ele>
        <time>2024-06-02T15:39:31.000Z</time>
      </trkpt>
      <trkpt lat="48.815643" lon="-3.524858">
        <ele>14.231305</ele>
        <time>2024-06-02T15:39:35.000Z</time>
      </trkpt>
      <trkpt lat="48.815728" lon="-3.524616">
        <ele>14.283113</ele>
        <time>2024-06-02T15:39:37.000Z</time>
      </trkpt>
      <trkpt lat="48.816005" lon="-3.523659">
        <ele>13.069762</ele>
        <time>2024-06-02T15:39:45.000Z</time>
      </trkpt>
      <trkpt lat="48.816183" lon="-3.523098">
        <ele>12.198378</ele>
        <time>2024-06-02T15:39:50.000Z</time>
      </trkpt>
      <trkpt lat="48.816821" lon="-3.521664">
        <ele>10.056886</ele>
        <time>2024-06-02T15:40:03.000Z</time>
      </trkpt>
      <trkpt lat="48.816961" lon="-3.521347">
        <ele>9.689476</ele>
        <time>2024-06-02T15:40:06.000Z</time>
      </trkpt>
      <trkpt lat="48.817413" lon="-3.519969">
        <ele>8.214113</ele>
        <time>2024-06-02T15:40:17.000Z</time>
      </trkpt>
      <trkpt lat="48.817613" lon="-3.519548">
        <ele>7.881242</ele>
        <time>2024-06-02T15:40:21.000Z</time>
      </trkpt>
      <trkpt lat="48.817829" lon="-3.519181">
        <ele>7.73307</ele>
        <time>2024-06-02T15:40:25.000Z</time>
      </trkpt>
      <trkpt lat="48.818534" lon="-3.518133">
        <ele>7.296939</ele>
        <time>2024-06-02T15:40:36.000Z</time>
      </trkpt>
      <trkpt lat="48.818834" lon="-3.517701">
        <ele>7.144228</ele>
        <time>2024-06-02T15:40:41.000Z</time>
      </trkpt>
      <trkpt lat="48.819129" lon="-3.517398">
        <ele>7.16207</ele>
        <time>2024-06-02T15:40:45.000Z</time>
      </trkpt>
      <trkpt lat="48.819426" lon="-3.517244">
        <ele>7.177503</ele>
        <time>2024-06-02T15:40:48.000Z</time>
      </trkpt>
      <trkpt lat="48.819723" lon="-3.517215">
        <ele>7.192402</ele>
        <time>2024-06-02T15:40:51.000Z</time>
      </trkpt>
      <trkpt lat="48.82014" lon="-3.517298">
        <ele>7.213146</ele>
        <time>2024-06-02T15:40:56.000Z</time>
      </trkpt>
      <trkpt lat="48.820954" lon="-3.517647">
        <ele>7.360537</ele>
        <time>2024-06-02T15:41:05.000Z</time>
      </trkpt>
      <trkpt lat="48.82156" lon="-3.517919">
        <ele>7.52691</ele>
        <time>2024-06-02T15:41:12.000Z</time>
      </trkpt>
      <trkpt lat="48.821736" lon="-3.518002">
        <ele>7.574469</ele>
        <time>2024-06-02T15:41:14.000Z</time>
      </trkpt>
      <trkpt lat="48.821936" lon="-3.518094">
        <ele>7.631331</ele>
        <time>2024-06-02T15:41:16.000Z</time>
      </trkpt>
      <trkpt lat="48.82239" lon="-3.518188">
        <ele>7.764271</ele>
        <time>2024-06-02T15:41:21.000Z</time>
      </trkpt>
      <trkpt lat="48.823208" lon="-3.518262">
        <ele>8.031449</ele>
        <time>2024-06-02T15:41:30.000Z</time>
      </trkpt>
      <trkpt lat="48.823922" lon="-3.518284">
        <ele>8.268001</ele>
        <time>2024-06-02T15:41:38.000Z</time>
      </trkpt>
      <trkpt lat="48.824147" lon="-3.518256">
        <ele>8.526809</ele>
        <time>2024-06-02T15:41:41.000Z</time>
      </trkpt>
      <trkpt lat="48.825292" lon="-3.517846">
        <ele>10.290723</ele>
        <time>2024-06-02T15:41:54.000Z</time>
      </trkpt>
      <trkpt lat="48.826099" lon="-3.517541">
        <ele>11.757365</ele>
        <time>2024-06-02T15:42:03.000Z</time>
      </trkpt>
      <trkpt lat="48.826896" lon="-3.517223">
        <ele>13.533435</ele>
        <time>2024-06-02T15:42:12.000Z</time>
      </trkpt>
      <trkpt lat="48.827155" lon="-3.517106">
        <ele>14.08052</ele>
        <time>2024-06-02T15:42:15.000Z</time>
      </trkpt>
      <trkpt lat="48.827295" lon="-3.516958">
        <ele>14.443568</ele>
        <time>2024-06-02T15:42:17.000Z</time>
      </trkpt>
      <trkpt lat="48.827446" lon="-3.516722">
        <ele>14.787709</ele>
        <time>2024-06-02T15:42:19.000Z</time>
      </trkpt>
      <trkpt lat="48.827621" lon="-3.51631">
        <ele>14.552169</ele>
        <time>2024-06-02T15:42:23.000Z</time>
      </trkpt>
      <trkpt lat="48.827661" lon="-3.516344">
        <ele>14.519507</ele>
        <time>2024-06-02T15:42:24.000Z</time>
      </trkpt>
      <trkpt lat="48.827704" lon="-3.516331">
        <ele>14.481162</ele>
        <time>2024-06-02T15:42:24.000Z</time>
      </trkpt>
      <trkpt lat="48.827715" lon="-3.516331">
        <ele>14.481166</ele>
        <time>2024-06-02T15:42:24.000Z</time>
      </trkpt>
      <trkpt lat="48.82782" lon="-3.517622">
        <ele>13.857095</ele>
        <time>2024-06-02T15:42:34.000Z</time>
      </trkpt>
      <trkpt lat="48.827934" lon="-3.518892">
        <ele>13.3684302929</ele>
        <time>2024-06-02T15:42:43.000Z</time>
      </trkpt>
      <trkpt lat="48.828053" lon="-3.520169">
        <ele>12.8767248413</ele>
        <time>2024-06-02T15:42:52.000Z</time>
      </trkpt>
      <trkpt lat="48.828152" lon="-3.52145">
        <ele>12.3849950651</ele>
        <time>2024-06-02T15:43:01.000Z</time>
      </trkpt>
      <trkpt lat="48.82866" lon="-3.521554">
        <ele>12.0881427276</ele>
        <time>2024-06-02T15:43:07.000Z</time>
      </trkpt>
    </trkseg>
  </trk>
</gpx>

<!--
Performance optimized by W3 Total Cache. Learn more: https://www.boldgrid.com/w3-total-cache/?utm_source=w3tc&utm_medium=footer_comment&utm_campaign=free_plugin

Page Caching using Disk: Enhanced{w3tc_pagecache_reject_reason} 

Served from: www.aquabike.world @ 2026-05-07 23:32:53 by W3 Total Cache
-->